<?xml version='1.0' encoding='UTF-8'?><gpx version="1.1" creator="JPX - https://github.com/jenetics/jpx" xmlns="http://www.topografix.com/GPX/1/1"><trk><trkseg><trkpt lat="42.43559700821242" lon="13.862438364770705"><ele>364.0</ele><time>2026-05-03T10:12:57.999Z</time></trkpt><trkpt lat="42.43571860435102" lon="13.862606730819717"><ele>364.0</ele><time>2026-05-03T10:12:59.999Z</time></trkpt><trkpt lat="42.43575825235933" lon="13.862676408231085"><ele>364.0</ele><time>2026-05-03T10:13:00.999Z</time></trkpt><trkpt lat="42.43579768862305" lon="13.862751777800357"><ele>364.0</ele><time>2026-05-03T10:13:01.999Z</time></trkpt><trkpt lat="42.43586869712364" lon="13.862862944521813"><ele>364.0</ele><time>2026-05-03T10:13:03.999Z</time></trkpt><trkpt lat="42.435833134483914" lon="13.862993448055958"><ele>364.0</ele><time>2026-05-03T10:13:05.999Z</time></trkpt><trkpt lat="42.435764740327805" lon="13.862931959005653"><ele>364.0</ele><time>2026-05-03T10:13:09.999Z</time></trkpt><trkpt lat="42.4358155511903" lon="13.862766128957297"><ele>364.0</ele><time>2026-05-03T10:13:10.999Z</time></trkpt><trkpt lat="42.43575433214839" lon="13.86264819124829"><ele>364.0</ele><time>2026-05-03T10:13:12.999Z</time></trkpt><trkpt lat="42.435678602696946" lon="13.862593467955177"><ele>364.0</ele><time>2026-05-03T10:13:14.999Z</time></trkpt><trkpt lat="42.43537923675499" lon="13.862895764613915"><ele>361.79999999999995</ele><time>2026-05-03T10:13:15.999Z</time></trkpt><trkpt lat="42.43531334379777" lon="13.862978355282477"><ele>359.59999999999997</ele><time>2026-05-03T10:13:16.999Z</time></trkpt><trkpt lat="42.4352680624002" lon="13.863082255391523"><ele>357.4</ele><time>2026-05-03T10:13:17.999Z</time></trkpt><trkpt lat="42.435233027436134" lon="13.863193624872423"><ele>355.2</ele><time>2026-05-03T10:13:18.999Z</time></trkpt><trkpt lat="42.435203730386064" lon="13.86331190720701"><ele>353.0</ele><time>2026-05-03T10:13:19.999Z</time></trkpt><trkpt lat="42.435183186381664" lon="13.863444840998676"><ele>353.59999999999997</ele><time>2026-05-03T10:13:20.999Z</time></trkpt><trkpt lat="42.435150682263306" lon="13.863594993989523"><ele>354.2</ele><time>2026-05-03T10:13:21.999Z</time></trkpt><trkpt lat="42.43510301579635" lon="13.86375536840042"><ele>354.8</ele><time>2026-05-03T10:13:22.999Z</time></trkpt><trkpt lat="42.43505020323497" lon="13.863890943734813"><ele>355.4</ele><time>2026-05-03T10:13:23.999Z</time></trkpt><trkpt lat="42.43500974441662" lon="13.863989214655142"><ele>356.0</ele><time>2026-05-03T10:13:24.999Z</time></trkpt><trkpt lat="42.43496502286061" lon="13.864069664949112"><ele>356.0</ele><time>2026-05-03T10:13:25.999Z</time></trkpt><trkpt lat="42.43491060022969" lon="13.864118971622192"><ele>356.0</ele><time>2026-05-03T10:13:26.999Z</time></trkpt><trkpt lat="42.43483982196107" lon="13.86415051660448"><ele>356.0</ele><time>2026-05-03T10:13:27.999Z</time></trkpt><trkpt lat="42.4347501842624" lon="13.864150506914847"><ele>356.0</ele><time>2026-05-03T10:13:28.999Z</time></trkpt><trkpt lat="42.43465531024644" lon="13.8641422938189"><ele>356.0</ele><time>2026-05-03T10:13:29.999Z</time></trkpt><trkpt lat="42.434559307411654" lon="13.864103528795825"><ele>356.0</ele><time>2026-05-03T10:13:30.999Z</time></trkpt><trkpt lat="42.434460062411986" lon="13.86410758232915"><ele>358.8</ele><time>2026-05-03T10:13:31.999Z</time></trkpt><trkpt lat="42.43435872624111" lon="13.864132310639846"><ele>361.6</ele><time>2026-05-03T10:13:32.999Z</time></trkpt><trkpt lat="42.434255743073635" lon="13.86416395393701"><ele>364.4</ele><time>2026-05-03T10:13:33.999Z</time></trkpt><trkpt lat="42.43414844229185" lon="13.864212541230259"><ele>367.2</ele><time>2026-05-03T10:13:35Z</time></trkpt><trkpt lat="42.43403594259628" lon="13.864172724688087"><ele>370.0</ele><time>2026-05-03T10:13:36Z</time></trkpt><trkpt lat="42.433913035601144" lon="13.864155649663418"><ele>371.25</ele><time>2026-05-03T10:13:37Z</time></trkpt><trkpt lat="42.433776150742474" lon="13.864137439980096"><ele>372.5</ele><time>2026-05-03T10:13:38Z</time></trkpt><trkpt lat="42.43362558604318" lon="13.864118717858227"><ele>373.75</ele><time>2026-05-03T10:13:39Z</time></trkpt><trkpt lat="42.43347203109081" lon="13.864104861060763"><ele>375.0</ele><time>2026-05-03T10:13:40Z</time></trkpt><trkpt lat="42.43334129789334" lon="13.864132328456632"><ele>375.0</ele><time>2026-05-03T10:13:41Z</time></trkpt><trkpt lat="42.433224777733656" lon="13.864161455210587"><ele>375.0</ele><time>2026-05-03T10:13:42Z</time></trkpt><trkpt lat="42.43311795478089" lon="13.864204400550895"><ele>375.0</ele><time>2026-05-03T10:13:43Z</time></trkpt><trkpt lat="42.43302665871025" lon="13.864245210397831"><ele>375.0</ele><time>2026-05-03T10:13:44Z</time></trkpt><trkpt lat="42.43295442849517" lon="13.864281115345575"><ele>375.0</ele><time>2026-05-03T10:13:45Z</time></trkpt><trkpt lat="42.43288150789464" lon="13.864313964162154"><ele>375.5</ele><time>2026-05-03T10:13:47Z</time></trkpt><trkpt lat="42.43284106794058" lon="13.864114211170296"><ele>376.0</ele><time>2026-05-03T10:14:02Z</time></trkpt><trkpt lat="42.43278511811927" lon="13.864053749531987"><ele>376.5</ele><time>2026-05-03T10:14:03Z</time></trkpt><trkpt lat="42.43273160547213" lon="13.863995728591451"><ele>377.0</ele><time>2026-05-03T10:14:04Z</time></trkpt><trkpt lat="42.43267511602185" lon="13.863934480094587"><ele>377.5</ele><time>2026-05-03T10:14:05Z</time></trkpt><trkpt lat="42.43261120273501" lon="13.863865182335573"><ele>378.0</ele><time>2026-05-03T10:14:06Z</time></trkpt><trkpt lat="42.43253395742695" lon="13.863781174577893"><ele>378.0</ele><time>2026-05-03T10:14:07Z</time></trkpt><trkpt lat="42.43244932904015" lon="13.86368818533144"><ele>378.0</ele><time>2026-05-03T10:14:08Z</time></trkpt><trkpt lat="42.43237502043423" lon="13.863606535356702"><ele>378.0</ele><time>2026-05-03T10:14:09Z</time></trkpt><trkpt lat="42.43230043961367" lon="13.863524586336972"><ele>378.0</ele><time>2026-05-03T10:14:10Z</time></trkpt><trkpt lat="42.43222010565441" lon="13.863436315782163"><ele>378.0</ele><time>2026-05-03T10:14:11Z</time></trkpt><trkpt lat="42.432135583283475" lon="13.863343443082664"><ele>380.25</ele><time>2026-05-03T10:14:12Z</time></trkpt><trkpt lat="42.43204613461962" lon="13.863245190986676"><ele>382.5</ele><time>2026-05-03T10:14:13Z</time></trkpt><trkpt lat="42.43195581538424" lon="13.863146362774154"><ele>384.75</ele><time>2026-05-03T10:14:14Z</time></trkpt><trkpt lat="42.431864002178216" lon="13.863045899835686"><ele>387.0</ele><time>2026-05-03T10:14:15Z</time></trkpt><trkpt lat="42.43176914908578" lon="13.862939133291166"><ele>387.0</ele><time>2026-05-03T10:14:16Z</time></trkpt><trkpt lat="42.43167307753986" lon="13.86283098171635"><ele>387.0</ele><time>2026-05-03T10:14:17Z</time></trkpt><trkpt lat="42.43157342487117" lon="13.862718885703291"><ele>387.0</ele><time>2026-05-03T10:14:18Z</time></trkpt><trkpt lat="42.43147125528058" lon="13.862606775660197"><ele>387.0</ele><time>2026-05-03T10:14:19Z</time></trkpt><trkpt lat="42.43136781487864" lon="13.862493271139394"><ele>389.20000000000005</ele><time>2026-05-03T10:14:20Z</time></trkpt><trkpt lat="42.43126695399956" lon="13.862382597128553"><ele>391.4</ele><time>2026-05-03T10:14:21Z</time></trkpt><trkpt lat="42.43117818285222" lon="13.86228518904415"><ele>393.6</ele><time>2026-05-03T10:14:22Z</time></trkpt><trkpt lat="42.43110143623037" lon="13.862200975474407"><ele>395.79999999999995</ele><time>2026-05-03T10:14:23Z</time></trkpt><trkpt lat="42.431023470389455" lon="13.862114142865092"><ele>398.0</ele><time>2026-05-03T10:14:24Z</time></trkpt><trkpt lat="42.430953671072835" lon="13.862036254343968"><ele>397.99999999999994</ele><time>2026-05-03T10:14:25Z</time></trkpt><trkpt lat="42.43089442159624" lon="13.861971919461743"><ele>398.0</ele><time>2026-05-03T10:14:26Z</time></trkpt><trkpt lat="42.43083701007145" lon="13.86192069633301"><ele>398.0</ele><time>2026-05-03T10:14:27Z</time></trkpt><trkpt lat="42.430767921487224" lon="13.86189047278007"><ele>398.0</ele><time>2026-05-03T10:14:28Z</time></trkpt><trkpt lat="42.43069312822659" lon="13.861918326719776"><ele>397.99999999999994</ele><time>2026-05-03T10:14:29Z</time></trkpt><trkpt lat="42.43063373462406" lon="13.861987249924994"><ele>398.0</ele><time>2026-05-03T10:14:30Z</time></trkpt><trkpt lat="42.43059250647082" lon="13.862080784676168"><ele>398.0</ele><time>2026-05-03T10:14:31Z</time></trkpt><trkpt lat="42.430565447935976" lon="13.862190133349511"><ele>398.0</ele><time>2026-05-03T10:14:32Z</time></trkpt><trkpt lat="42.43054923090176" lon="13.862318022289612"><ele>398.0</ele><time>2026-05-03T10:14:33Z</time></trkpt><trkpt lat="42.430557312025435" lon="13.862470862512305"><ele>398.0</ele><time>2026-05-03T10:14:34Z</time></trkpt><trkpt lat="42.43056412715671" lon="13.862609728478057"><ele>398.0</ele><time>2026-05-03T10:14:35Z</time></trkpt><trkpt lat="42.43057268618019" lon="13.862742885167492"><ele>398.59999999999997</ele><time>2026-05-03T10:14:36Z</time></trkpt><trkpt lat="42.43058152580702" lon="13.862889026809091"><ele>399.2</ele><time>2026-05-03T10:14:37Z</time></trkpt><trkpt lat="42.43058969847248" lon="13.863029323969238"><ele>399.8</ele><time>2026-05-03T10:14:38Z</time></trkpt><trkpt lat="42.43060065721034" lon="13.863153802050993"><ele>400.4</ele><time>2026-05-03T10:14:39Z</time></trkpt><trkpt lat="42.43061163354035" lon="13.863261298669881"><ele>401.0</ele><time>2026-05-03T10:14:40Z</time></trkpt><trkpt lat="42.430626031095514" lon="13.863372270368227"><ele>400.0</ele><time>2026-05-03T10:14:41Z</time></trkpt><trkpt lat="42.43059339050064" lon="13.863500242718416"><ele>399.0</ele><time>2026-05-03T10:14:42Z</time></trkpt><trkpt lat="42.4305448739374" lon="13.863629508193595"><ele>398.0</ele><time>2026-05-03T10:14:43Z</time></trkpt><trkpt lat="42.43049129014088" lon="13.863751176889872"><ele>397.0</ele><time>2026-05-03T10:14:44Z</time></trkpt><trkpt lat="42.43042732047484" lon="13.863867985484044"><ele>396.0</ele><time>2026-05-03T10:14:45Z</time></trkpt><trkpt lat="42.430357459267604" lon="13.863958025814867"><ele>398.8333333333333</ele><time>2026-05-03T10:14:46Z</time></trkpt><trkpt lat="42.43028611945647" lon="13.864004539090647"><ele>401.66666666666663</ele><time>2026-05-03T10:14:46.999Z</time></trkpt><trkpt lat="42.430212653904185" lon="13.864015745076458"><ele>404.5</ele><time>2026-05-03T10:14:47.999Z</time></trkpt><trkpt lat="42.43014033522323" lon="13.864012284165582"><ele>407.3333333333333</ele><time>2026-05-03T10:14:48.999Z</time></trkpt><trkpt lat="42.43009682645895" lon="13.863907008068312"><ele>410.16666666666663</ele><time>2026-05-03T10:14:49.999Z</time></trkpt><trkpt lat="42.430067422042114" lon="13.86379907864967"><ele>413.0</ele><time>2026-05-03T10:14:50.999Z</time></trkpt><trkpt lat="42.43001419137674" lon="13.863687527840966"><ele>413.0</ele><time>2026-05-03T10:14:51.999Z</time></trkpt><trkpt lat="42.429951756513375" lon="13.863563447955286"><ele>413.0</ele><time>2026-05-03T10:14:52.999Z</time></trkpt><trkpt lat="42.42988480178373" lon="13.863433447029923"><ele>413.0</ele><time>2026-05-03T10:14:53.999Z</time></trkpt><trkpt lat="42.42981454075118" lon="13.863304421990609"><ele>413.0</ele><time>2026-05-03T10:14:54.999Z</time></trkpt><trkpt lat="42.429741411261425" lon="13.863171596270737"><ele>413.59999999999997</ele><time>2026-05-03T10:14:55.999Z</time></trkpt><trkpt lat="42.42968033719479" lon="13.863045451298268"><ele>414.2</ele><time>2026-05-03T10:14:56.999Z</time></trkpt><trkpt lat="42.429634017633575" lon="13.862949541593434"><ele>414.8</ele><time>2026-05-03T10:14:57.999Z</time></trkpt><trkpt lat="42.42955949890672" lon="13.862840184080781"><ele>415.4</ele><time>2026-05-03T10:14:59.999Z</time></trkpt><trkpt lat="42.42944644475667" lon="13.86293262186245"><ele>416.0</ele><time>2026-05-03T10:15:02.999Z</time></trkpt><trkpt lat="42.42943541203687" lon="13.863039817738196"><ele>418.6</ele><time>2026-05-03T10:15:03.999Z</time></trkpt><trkpt lat="42.42939154913851" lon="13.863160196688176"><ele>421.20000000000005</ele><time>2026-05-03T10:15:04.999Z</time></trkpt><trkpt lat="42.42936190669774" lon="13.86330215618459"><ele>423.79999999999995</ele><time>2026-05-03T10:15:05.999Z</time></trkpt><trkpt lat="42.4293483074019" lon="13.863435429548696"><ele>426.4</ele><time>2026-05-03T10:15:06.999Z</time></trkpt><trkpt lat="42.429330972355295" lon="13.86353837386599"><ele>429.0</ele><time>2026-05-03T10:15:07.999Z</time></trkpt><trkpt lat="42.429298289247825" lon="13.863616404555176"><ele>429.0</ele><time>2026-05-03T10:15:08.999Z</time></trkpt><trkpt lat="42.42925600681831" lon="13.863694480792338"><ele>429.0</ele><time>2026-05-03T10:15:09.999Z</time></trkpt><trkpt lat="42.42919332510961" lon="13.863768209341872"><ele>429.0</ele><time>2026-05-03T10:15:10.999Z</time></trkpt><trkpt lat="42.42912446620584" lon="13.863856336602483"><ele>429.0</ele><time>2026-05-03T10:15:11.999Z</time></trkpt><trkpt lat="42.42905600019689" lon="13.863939900142022"><ele>429.0</ele><time>2026-05-03T10:15:12.999Z</time></trkpt><trkpt lat="42.42898373080227" lon="13.864026226317957"><ele>429.0</ele><time>2026-05-03T10:15:13.999Z</time></trkpt><trkpt lat="42.42891457655759" lon="13.86411485940975"><ele>429.0</ele><time>2026-05-03T10:15:14.999Z</time></trkpt><trkpt lat="42.4288428779262" lon="13.864193902571811"><ele>429.0</ele><time>2026-05-03T10:15:15.999Z</time></trkpt><trkpt lat="42.42875503772718" lon="13.86423560936399"><ele>429.0</ele><time>2026-05-03T10:15:16.999Z</time></trkpt><trkpt lat="42.42867395007136" lon="13.864284285884365"><ele>429.0</ele><time>2026-05-03T10:15:17.999Z</time></trkpt><trkpt lat="42.42859019822801" lon="13.864328628204023"><ele>429.0</ele><time>2026-05-03T10:15:18.999Z</time></trkpt><trkpt lat="42.42850109731955" lon="13.864372244018442"><ele>430.6666666666667</ele><time>2026-05-03T10:15:19.999Z</time></trkpt><trkpt lat="42.42841125144327" lon="13.864411295610775"><ele>432.33333333333337</ele><time>2026-05-03T10:15:20.999Z</time></trkpt><trkpt lat="42.428322049988985" lon="13.864447553603252"><ele>434.0</ele><time>2026-05-03T10:15:21.999Z</time></trkpt><trkpt lat="42.42823643983081" lon="13.864474782499638"><ele>435.6666666666667</ele><time>2026-05-03T10:15:22.999Z</time></trkpt><trkpt lat="42.42815563839738" lon="13.864480936978802"><ele>437.33333333333337</ele><time>2026-05-03T10:15:23.999Z</time></trkpt><trkpt lat="42.42807296966422" lon="13.864493828100358"><ele>439.0</ele><time>2026-05-03T10:15:24.999Z</time></trkpt><trkpt lat="42.42799706359882" lon="13.864428967880501"><ele>441.2</ele><time>2026-05-03T10:15:25.999Z</time></trkpt><trkpt lat="42.42791234457784" lon="13.864387302110533"><ele>443.4</ele><time>2026-05-03T10:15:26.999Z</time></trkpt><trkpt lat="42.42781962333655" lon="13.864378286380163"><ele>445.6</ele><time>2026-05-03T10:15:27.999Z</time></trkpt><trkpt lat="42.42773361760348" lon="13.864366439373443"><ele>447.8</ele><time>2026-05-03T10:15:28.999Z</time></trkpt><trkpt lat="42.4276480062384" lon="13.864388796154294"><ele>450.0</ele><time>2026-05-03T10:15:29.999Z</time></trkpt><trkpt lat="42.42755954048084" lon="13.864429838839198"><ele>450.0</ele><time>2026-05-03T10:15:30.999Z</time></trkpt><trkpt lat="42.4274618594383" lon="13.864467591716034"><ele>450.0</ele><time>2026-05-03T10:15:31.999Z</time></trkpt><trkpt lat="42.427368656912975" lon="13.864533211875377"><ele>450.0</ele><time>2026-05-03T10:15:32.999Z</time></trkpt><trkpt lat="42.42727780283957" lon="13.864608749382086"><ele>450.0</ele><time>2026-05-03T10:15:33.999Z</time></trkpt><trkpt lat="42.42720097643019" lon="13.864712964189561"><ele>450.0</ele><time>2026-05-03T10:15:34.999Z</time></trkpt><trkpt lat="42.427118949526715" lon="13.864810625251446"><ele>450.6</ele><time>2026-05-03T10:15:35.999Z</time></trkpt><trkpt lat="42.42705889946901" lon="13.864941199514714"><ele>451.2</ele><time>2026-05-03T10:15:36.999Z</time></trkpt><trkpt lat="42.42701727001881" lon="13.865077459684052"><ele>451.79999999999995</ele><time>2026-05-03T10:15:37.999Z</time></trkpt><trkpt lat="42.42697980426387" lon="13.865195569247218"><ele>452.4</ele><time>2026-05-03T10:15:38.999Z</time></trkpt><trkpt lat="42.42694614187166" lon="13.865309260503853"><ele>453.0</ele><time>2026-05-03T10:15:39.999Z</time></trkpt><trkpt lat="42.426898849227285" lon="13.865395704077866"><ele>453.0</ele><time>2026-05-03T10:15:41Z</time></trkpt><trkpt lat="42.42682813210501" lon="13.865524947284033"><ele>453.0</ele><time>2026-05-03T10:15:43Z</time></trkpt><trkpt lat="42.426758835574326" lon="13.86553371380554"><ele>453.0</ele><time>2026-05-03T10:15:44Z</time></trkpt><trkpt lat="42.426677129264725" lon="13.865545189615679"><ele>453.0</ele><time>2026-05-03T10:15:45Z</time></trkpt><trkpt lat="42.42659186055145" lon="13.865591454312243"><ele>453.0</ele><time>2026-05-03T10:15:46Z</time></trkpt><trkpt lat="42.42651413441158" lon="13.865626441180037"><ele>453.0</ele><time>2026-05-03T10:15:47Z</time></trkpt><trkpt lat="42.426432467050354" lon="13.865652877396299"><ele>453.0</ele><time>2026-05-03T10:15:48Z</time></trkpt><trkpt lat="42.426340474719424" lon="13.865702908296756"><ele>453.0</ele><time>2026-05-03T10:15:49Z</time></trkpt><trkpt lat="42.42624511419508" lon="13.865753901452143"><ele>453.0</ele><time>2026-05-03T10:15:50Z</time></trkpt><trkpt lat="42.4261712772075" lon="13.86578175840926"><ele>453.0</ele><time>2026-05-03T10:15:51Z</time></trkpt><trkpt lat="42.42610826196188" lon="13.86578904160983"><ele>453.0</ele><time>2026-05-03T10:15:52Z</time></trkpt><trkpt lat="42.426052837538464" lon="13.865670192535383"><ele>453.0</ele><time>2026-05-03T10:15:54Z</time></trkpt><trkpt lat="42.42609091920425" lon="13.865571509318839"><ele>454.59999999999997</ele><time>2026-05-03T10:15:55Z</time></trkpt><trkpt lat="42.42613065440414" lon="13.865468853241406"><ele>456.19999999999993</ele><time>2026-05-03T10:15:56Z</time></trkpt><trkpt lat="42.42618131991274" lon="13.865335714508529"><ele>457.8</ele><time>2026-05-03T10:15:57Z</time></trkpt><trkpt lat="42.42624259810576" lon="13.865210127979857"><ele>459.4</ele><time>2026-05-03T10:15:58Z</time></trkpt><trkpt lat="42.426292426413326" lon="13.865100803414524"><ele>461.0</ele><time>2026-05-03T10:15:59Z</time></trkpt><trkpt lat="42.42633871206171" lon="13.86499042721039"><ele>461.0</ele><time>2026-05-03T10:16:00Z</time></trkpt><trkpt lat="42.426387163502966" lon="13.864880204555655"><ele>461.0</ele><time>2026-05-03T10:16:01Z</time></trkpt><trkpt lat="42.42643580013341" lon="13.864767011420359"><ele>461.0</ele><time>2026-05-03T10:16:02Z</time></trkpt><trkpt lat="42.42648229564253" lon="13.864651573699488"><ele>461.0</ele><time>2026-05-03T10:16:03Z</time></trkpt><trkpt lat="42.42652991386614" lon="13.864533755085368"><ele>461.0</ele><time>2026-05-03T10:16:04Z</time></trkpt><trkpt lat="42.42658226368169" lon="13.864427970565323"><ele>460.99999999999994</ele><time>2026-05-03T10:16:05Z</time></trkpt><trkpt lat="42.426638183378316" lon="13.864329367740089"><ele>461.0</ele><time>2026-05-03T10:16:06Z</time></trkpt><trkpt lat="42.42669873910403" lon="13.864243521920523"><ele>461.0</ele><time>2026-05-03T10:16:07Z</time></trkpt><trkpt lat="42.42676084266743" lon="13.864151199974039"><ele>461.0</ele><time>2026-05-03T10:16:08Z</time></trkpt><trkpt lat="42.42683036724301" lon="13.864057295895618"><ele>460.99999999999994</ele><time>2026-05-03T10:16:09Z</time></trkpt><trkpt lat="42.426877134206265" lon="13.863979224638138"><ele>461.0</ele><time>2026-05-03T10:16:10Z</time></trkpt><trkpt lat="42.42690811555755" lon="13.86390291477637"><ele>463.66666666666663</ele><time>2026-05-03T10:16:11Z</time></trkpt><trkpt lat="42.426917678673455" lon="13.863808405937547"><ele>466.3333333333333</ele><time>2026-05-03T10:16:12Z</time></trkpt><trkpt lat="42.42691952951549" lon="13.863707260985946"><ele>469.0</ele><time>2026-05-03T10:16:13Z</time></trkpt><trkpt lat="42.4269383046485" lon="13.863598962222635"><ele>471.66666666666663</ele><time>2026-05-03T10:16:14Z</time></trkpt><trkpt lat="42.42694072564063" lon="13.863486282485438"><ele>474.3333333333333</ele><time>2026-05-03T10:16:15Z</time></trkpt><trkpt lat="42.42695288079139" lon="13.863361909790617"><ele>477.0</ele><time>2026-05-03T10:16:16Z</time></trkpt><trkpt lat="42.42697582754039" lon="13.863225480520114"><ele>479.0</ele><time>2026-05-03T10:16:17Z</time></trkpt><trkpt lat="42.42701336405453" lon="13.863090934453966"><ele>481.00000000000006</ele><time>2026-05-03T10:16:18Z</time></trkpt><trkpt lat="42.42704595574937" lon="13.862972620241738"><ele>483.00000000000006</ele><time>2026-05-03T10:16:19Z</time></trkpt><trkpt lat="42.42705968241743" lon="13.862863299241768"><ele>485.0</ele><time>2026-05-03T10:16:20Z</time></trkpt><trkpt lat="42.427079622690385" lon="13.862782112026993"><ele>487.0</ele><time>2026-05-03T10:16:21Z</time></trkpt><trkpt lat="42.42705662204204" lon="13.86263454638682"><ele>487.0</ele><time>2026-05-03T10:16:23Z</time></trkpt><trkpt lat="42.426937535943786" lon="13.862614225615383"><ele>487.00000000000006</ele><time>2026-05-03T10:16:25Z</time></trkpt><trkpt lat="42.426871280334396" lon="13.86268240667943"><ele>487.00000000000006</ele><time>2026-05-03T10:16:26Z</time></trkpt><trkpt lat="42.42680557638704" lon="13.862747226551932"><ele>487.0</ele><time>2026-05-03T10:16:27Z</time></trkpt><trkpt lat="42.4267414237511" lon="13.862791682140582"><ele>487.0</ele><time>2026-05-03T10:16:28Z</time></trkpt><trkpt lat="42.42662723098267" lon="13.862779600023"><ele>487.00000000000006</ele><time>2026-05-03T10:16:30Z</time></trkpt><trkpt lat="42.42660656176122" lon="13.862621022771274"><ele>487.0</ele><time>2026-05-03T10:16:32Z</time></trkpt><trkpt lat="42.426593185619595" lon="13.86251513056348"><ele>487.0</ele><time>2026-05-03T10:16:33Z</time></trkpt><trkpt lat="42.4265969387507" lon="13.86241804311598"><ele>487.0</ele><time>2026-05-03T10:16:34Z</time></trkpt><trkpt lat="42.42657366688737" lon="13.862333788312027"><ele>487.00000000000006</ele><time>2026-05-03T10:16:35Z</time></trkpt><trkpt lat="42.426526096815905" lon="13.862268302691245"><ele>487.0</ele><time>2026-05-03T10:16:36Z</time></trkpt><trkpt lat="42.42644130206447" lon="13.862259287824031"><ele>489.0</ele><time>2026-05-03T10:16:37Z</time></trkpt><trkpt lat="42.426370128714595" lon="13.862345272155887"><ele>491.00000000000006</ele><time>2026-05-03T10:16:38Z</time></trkpt><trkpt lat="42.42628780168834" lon="13.862391503449539"><ele>493.00000000000006</ele><time>2026-05-03T10:16:39Z</time></trkpt><trkpt lat="42.42619553620362" lon="13.862465787383625"><ele>495.0</ele><time>2026-05-03T10:16:40Z</time></trkpt><trkpt lat="42.426093105126576" lon="13.862543842656358"><ele>497.0</ele><time>2026-05-03T10:16:41Z</time></trkpt><trkpt lat="42.42601021765194" lon="13.862603700229192"><ele>498.0</ele><time>2026-05-03T10:16:42Z</time></trkpt><trkpt lat="42.42593510565264" lon="13.862656199632568"><ele>499.00000000000006</ele><time>2026-05-03T10:16:43Z</time></trkpt><trkpt lat="42.4258586698805" lon="13.862708639261044"><ele>500.00000000000006</ele><time>2026-05-03T10:16:44Z</time></trkpt><trkpt lat="42.42576876849472" lon="13.862765947846372"><ele>501.0</ele><time>2026-05-03T10:16:45Z</time></trkpt><trkpt lat="42.4256779672157" lon="13.862816431940265"><ele>502.0</ele><time>2026-05-03T10:16:45.999Z</time></trkpt><trkpt lat="42.42558574361971" lon="13.862841943807469"><ele>502.0</ele><time>2026-05-03T10:16:46.999Z</time></trkpt><trkpt lat="42.425484207550475" lon="13.86285026917131"><ele>502.00000000000006</ele><time>2026-05-03T10:16:47.999Z</time></trkpt><trkpt lat="42.42537920697166" lon="13.86286061890231"><ele>502.00000000000006</ele><time>2026-05-03T10:16:48.999Z</time></trkpt><trkpt lat="42.425273035418876" lon="13.862872100620542"><ele>502.0</ele><time>2026-05-03T10:16:49.999Z</time></trkpt><trkpt lat="42.42515748515638" lon="13.862903878675864"><ele>502.0</ele><time>2026-05-03T10:16:50.999Z</time></trkpt><trkpt lat="42.42504152988806" lon="13.86295432651597"><ele>504.40000000000003</ele><time>2026-05-03T10:16:51.999Z</time></trkpt><trkpt lat="42.42491572130258" lon="13.863005362371476"><ele>506.80000000000007</ele><time>2026-05-03T10:16:52.999Z</time></trkpt><trkpt lat="42.424806206121126" lon="13.86304191614588"><ele>509.2</ele><time>2026-05-03T10:16:53.999Z</time></trkpt><trkpt lat="42.42471595444993" lon="13.863060294217867"><ele>511.6</ele><time>2026-05-03T10:16:54.999Z</time></trkpt><trkpt lat="42.42463127963569" lon="13.863067766920452"><ele>514.0</ele><time>2026-05-03T10:16:55.999Z</time></trkpt><trkpt lat="42.424542000754485" lon="13.863064624055362"><ele>514.6</ele><time>2026-05-03T10:16:56.999Z</time></trkpt><trkpt lat="42.42444596239607" lon="13.863055324636901"><ele>515.2</ele><time>2026-05-03T10:16:57.999Z</time></trkpt><trkpt lat="42.4243461525129" lon="13.863040929302583"><ele>515.8000000000001</ele><time>2026-05-03T10:16:58.999Z</time></trkpt><trkpt lat="42.42423779432661" lon="13.863038082368238"><ele>516.4</ele><time>2026-05-03T10:16:59.999Z</time></trkpt><trkpt lat="42.4241369546649" lon="13.862993659623028"><ele>517.0</ele><time>2026-05-03T10:17:00.999Z</time></trkpt><trkpt lat="42.424035934976644" lon="13.862961972155633"><ele>517.0</ele><time>2026-05-03T10:17:01.999Z</time></trkpt><trkpt lat="42.42394089507781" lon="13.862920920522567"><ele>517.0</ele><time>2026-05-03T10:17:02.999Z</time></trkpt><trkpt lat="42.423870287881364" lon="13.862882984002773"><ele>517.0</ele><time>2026-05-03T10:17:03.999Z</time></trkpt><trkpt lat="42.42380827226861" lon="13.862844323618273"><ele>517.0</ele><time>2026-05-03T10:17:04.999Z</time></trkpt><trkpt lat="42.42370820880316" lon="13.862746679571764"><ele>517.0</ele><time>2026-05-03T10:17:06.999Z</time></trkpt><trkpt lat="42.42367345623381" lon="13.862638349132112"><ele>519.2857142857143</ele><time>2026-05-03T10:17:08.999Z</time></trkpt><trkpt lat="42.42372489733511" lon="13.862578154432327"><ele>521.5714285714287</ele><time>2026-05-03T10:17:09.999Z</time></trkpt><trkpt lat="42.42379789101048" lon="13.86255705204004"><ele>523.8571428571429</ele><time>2026-05-03T10:17:10.999Z</time></trkpt><trkpt lat="42.4238655211636" lon="13.862503091867705"><ele>526.1428571428571</ele><time>2026-05-03T10:17:11.999Z</time></trkpt><trkpt lat="42.423938256419426" lon="13.862462929700596"><ele>528.4285714285713</ele><time>2026-05-03T10:17:12.999Z</time></trkpt><trkpt lat="42.42400042881898" lon="13.86240936520408"><ele>530.7142857142857</ele><time>2026-05-03T10:17:13.999Z</time></trkpt><trkpt lat="42.4240555628201" lon="13.862358107566475"><ele>533.0</ele><time>2026-05-03T10:17:14.999Z</time></trkpt><trkpt lat="42.424108373992276" lon="13.862256818539944"><ele>533.0</ele><time>2026-05-03T10:17:16.999Z</time></trkpt><trkpt lat="42.42407865116354" lon="13.862129220803759"><ele>533.0</ele><time>2026-05-03T10:17:18.999Z</time></trkpt><trkpt lat="42.42398901564039" lon="13.862104285723774"><ele>533.0</ele><time>2026-05-03T10:17:19.999Z</time></trkpt><trkpt lat="42.423910274295125" lon="13.86208487300903"><ele>533.0</ele><time>2026-05-03T10:17:20.999Z</time></trkpt><trkpt lat="42.42383944531492" lon="13.862062745783152"><ele>533.0</ele><time>2026-05-03T10:17:21.999Z</time></trkpt><trkpt lat="42.42377873949143" lon="13.862019725373756"><ele>533.0</ele><time>2026-05-03T10:17:23.999Z</time></trkpt><trkpt lat="42.423844072026945" lon="13.86204052543961"><ele>534.0</ele><time>2026-05-03T10:17:39.999Z</time></trkpt><trkpt lat="42.424049482589325" lon="13.862025025136257"><ele>535.0</ele><time>2026-05-03T10:17:41.999Z</time></trkpt><trkpt lat="42.424131985075604" lon="13.862006101735439"><ele>536.0</ele><time>2026-05-03T10:17:42.999Z</time></trkpt><trkpt lat="42.42422941888146" lon="13.862003031672662"><ele>537.0</ele><time>2026-05-03T10:17:43.999Z</time></trkpt><trkpt lat="42.42432637034206" lon="13.861955086771005"><ele>537.0</ele><time>2026-05-03T10:17:44.999Z</time></trkpt><trkpt lat="42.42442490131507" lon="13.861922759122152"><ele>537.0</ele><time>2026-05-03T10:17:46Z</time></trkpt><trkpt lat="42.42452260141843" lon="13.8618573581869"><ele>537.0</ele><time>2026-05-03T10:17:47Z</time></trkpt><trkpt lat="42.42461871530558" lon="13.861757279229066"><ele>537.0</ele><time>2026-05-03T10:17:48Z</time></trkpt><trkpt lat="42.424713800835086" lon="13.861612290898792"><ele>537.75</ele><time>2026-05-03T10:17:49Z</time></trkpt><trkpt lat="42.42479468553084" lon="13.861442557975133"><ele>538.5</ele><time>2026-05-03T10:17:50Z</time></trkpt><trkpt lat="42.42486355956099" lon="13.861290145986352"><ele>539.25</ele><time>2026-05-03T10:17:51Z</time></trkpt><trkpt lat="42.4249415060535" lon="13.86113251018475"><ele>540.0</ele><time>2026-05-03T10:17:52Z</time></trkpt><trkpt lat="42.42502258939902" lon="13.860964613520839"><ele>542.0</ele><time>2026-05-03T10:17:53Z</time></trkpt><trkpt lat="42.42508902559945" lon="13.860774243624103"><ele>544.0</ele><time>2026-05-03T10:17:54Z</time></trkpt><trkpt lat="42.42515675527049" lon="13.860580442395705"><ele>546.0</ele><time>2026-05-03T10:17:55Z</time></trkpt><trkpt lat="42.425234895181994" lon="13.860391614721113"><ele>546.0</ele><time>2026-05-03T10:17:56Z</time></trkpt><trkpt lat="42.42530906326667" lon="13.860224095932024"><ele>546.0</ele><time>2026-05-03T10:17:57Z</time></trkpt><trkpt lat="42.425365230831545" lon="13.86004755092129"><ele>546.0</ele><time>2026-05-03T10:17:58Z</time></trkpt><trkpt lat="42.425396475391295" lon="13.85986282696903"><ele>546.0</ele><time>2026-05-03T10:17:59Z</time></trkpt><trkpt lat="42.4254125078255" lon="13.859671245005845"><ele>545.75</ele><time>2026-05-03T10:18:00Z</time></trkpt><trkpt lat="42.42541384702348" lon="13.859481948257319"><ele>545.5</ele><time>2026-05-03T10:18:01Z</time></trkpt><trkpt lat="42.42538520493306" lon="13.859287671081809"><ele>545.25</ele><time>2026-05-03T10:18:02Z</time></trkpt><trkpt lat="42.42532081026734" lon="13.859120873758085"><ele>545.0</ele><time>2026-05-03T10:18:03Z</time></trkpt><trkpt lat="42.42530929080178" lon="13.858946732388267"><ele>545.0</ele><time>2026-05-03T10:18:04Z</time></trkpt><trkpt lat="42.42532385801397" lon="13.85876957226872"><ele>545.0</ele><time>2026-05-03T10:18:05Z</time></trkpt><trkpt lat="42.42535923080739" lon="13.858564941439694"><ele>545.0</ele><time>2026-05-03T10:18:06Z</time></trkpt><trkpt lat="42.42540666806619" lon="13.858362000802323"><ele>545.0</ele><time>2026-05-03T10:18:07Z</time></trkpt><trkpt lat="42.42544444236748" lon="13.858164844807995"><ele>544.75</ele><time>2026-05-03T10:18:08Z</time></trkpt><trkpt lat="42.42547872499333" lon="13.857973587784047"><ele>544.5</ele><time>2026-05-03T10:18:09Z</time></trkpt><trkpt lat="42.42550417102547" lon="13.857781760511417"><ele>544.25</ele><time>2026-05-03T10:18:10Z</time></trkpt><trkpt lat="42.42552383191426" lon="13.857598172328279"><ele>544.0</ele><time>2026-05-03T10:18:11Z</time></trkpt><trkpt lat="42.42554884266189" lon="13.857421079830914"><ele>539.5</ele><time>2026-05-03T10:18:12Z</time></trkpt><trkpt lat="42.425577944706724" lon="13.857257039451243"><ele>535.0</ele><time>2026-05-03T10:18:13Z</time></trkpt><trkpt lat="42.42559715654077" lon="13.85710147291684"><ele>530.5</ele><time>2026-05-03T10:18:14Z</time></trkpt><trkpt lat="42.42558704045924" lon="13.856942150703162"><ele>526.0</ele><time>2026-05-03T10:18:15Z</time></trkpt><trkpt lat="42.42554630314719" lon="13.856782345003124"><ele>525.0</ele><time>2026-05-03T10:18:16Z</time></trkpt><trkpt lat="42.42547979911834" lon="13.856631460754087"><ele>524.0</ele><time>2026-05-03T10:18:17Z</time></trkpt><trkpt lat="42.4254080782549" lon="13.85649202478562"><ele>523.0</ele><time>2026-05-03T10:18:18Z</time></trkpt><trkpt lat="42.42533302727022" lon="13.856359347815816"><ele>522.0</ele><time>2026-05-03T10:18:19Z</time></trkpt><trkpt lat="42.42527150424431" lon="13.856235166155574"><ele>523.2</ele><time>2026-05-03T10:18:20Z</time></trkpt><trkpt lat="42.425206763589415" lon="13.856136073435378"><ele>524.4000000000001</ele><time>2026-05-03T10:18:21Z</time></trkpt><trkpt lat="42.425157246091274" lon="13.856015510393759"><ele>525.5999999999999</ele><time>2026-05-03T10:18:22Z</time></trkpt><trkpt lat="42.42513857528619" lon="13.855861471069417"><ele>526.8</ele><time>2026-05-03T10:18:23Z</time></trkpt><trkpt lat="42.425075147578234" lon="13.855720834500852"><ele>528.0</ele><time>2026-05-03T10:18:24Z</time></trkpt><trkpt lat="42.425026101302166" lon="13.855563345290165"><ele>528.0</ele><time>2026-05-03T10:18:25Z</time></trkpt><trkpt lat="42.42495970998564" lon="13.855419656017672"><ele>528.0</ele><time>2026-05-03T10:18:26Z</time></trkpt><trkpt lat="42.424920018772" lon="13.855264366423812"><ele>528.0</ele><time>2026-05-03T10:18:27Z</time></trkpt><trkpt lat="42.424856555523824" lon="13.855128413910826"><ele>528.0</ele><time>2026-05-03T10:18:28Z</time></trkpt><trkpt lat="42.424788183518906" lon="13.854999898242523"><ele>527.75</ele><time>2026-05-03T10:18:29Z</time></trkpt><trkpt lat="42.42468853479936" lon="13.854906457882374"><ele>527.5</ele><time>2026-05-03T10:18:30Z</time></trkpt><trkpt lat="42.4245702817095" lon="13.85485268790432"><ele>527.25</ele><time>2026-05-03T10:18:31Z</time></trkpt><trkpt lat="42.42445200929912" lon="13.854807119220482"><ele>527.0</ele><time>2026-05-03T10:18:32Z</time></trkpt><trkpt lat="42.42433607320338" lon="13.854771328723146"><ele>527.0</ele><time>2026-05-03T10:18:33Z</time></trkpt><trkpt lat="42.42422755482669" lon="13.85472039066855"><ele>527.0</ele><time>2026-05-03T10:18:34Z</time></trkpt><trkpt lat="42.424129339578066" lon="13.854635106795394"><ele>527.0</ele><time>2026-05-03T10:18:35Z</time></trkpt><trkpt lat="42.42404341008414" lon="13.854541961402015"><ele>527.0</ele><time>2026-05-03T10:18:36Z</time></trkpt><trkpt lat="42.42398344171043" lon="13.854439177623846"><ele>527.0</ele><time>2026-05-03T10:18:37Z</time></trkpt><trkpt lat="42.42395402849039" lon="13.854311321719738"><ele>523.0</ele><time>2026-05-03T10:18:38Z</time></trkpt><trkpt lat="42.423936135561156" lon="13.85416492995448"><ele>519.0</ele><time>2026-05-03T10:18:39Z</time></trkpt><trkpt lat="42.423900168706446" lon="13.854011325521208"><ele>515.0</ele><time>2026-05-03T10:18:40Z</time></trkpt><trkpt lat="42.42389550499056" lon="13.853860570626683"><ele>511.0</ele><time>2026-05-03T10:18:41Z</time></trkpt><trkpt lat="42.42387943557181" lon="13.853720233069994"><ele>507.0</ele><time>2026-05-03T10:18:41.999Z</time></trkpt><trkpt lat="42.42393343708443" lon="13.8535860547405"><ele>507.0</ele><time>2026-05-03T10:18:42.999Z</time></trkpt><trkpt lat="42.42402536994546" lon="13.853468605944945"><ele>507.0</ele><time>2026-05-03T10:18:43.999Z</time></trkpt><trkpt lat="42.4241342447096" lon="13.853358364461357"><ele>507.0</ele><time>2026-05-03T10:18:44.999Z</time></trkpt><trkpt lat="42.424251601612575" lon="13.853229802429272"><ele>507.0</ele><time>2026-05-03T10:18:45.999Z</time></trkpt><trkpt lat="42.42436810950931" lon="13.853084793053416"><ele>507.0</ele><time>2026-05-03T10:18:46.999Z</time></trkpt><trkpt lat="42.424481904529635" lon="13.8529414227471"><ele>507.0</ele><time>2026-05-03T10:18:47.999Z</time></trkpt><trkpt lat="42.42459200173423" lon="13.852809455735098"><ele>507.0</ele><time>2026-05-03T10:18:48.999Z</time></trkpt><trkpt lat="42.42470956902918" lon="13.85269626537544"><ele>507.0</ele><time>2026-05-03T10:18:49.999Z</time></trkpt><trkpt lat="42.42483151322893" lon="13.852607578216173"><ele>504.75</ele><time>2026-05-03T10:18:50.999Z</time></trkpt><trkpt lat="42.42495873168594" lon="13.852557797750736"><ele>502.5</ele><time>2026-05-03T10:18:51.999Z</time></trkpt><trkpt lat="42.42507971980924" lon="13.852534820784703"><ele>500.25</ele><time>2026-05-03T10:18:52.999Z</time></trkpt><trkpt lat="42.42519618942568" lon="13.852494776321109"><ele>498.0</ele><time>2026-05-03T10:18:53.999Z</time></trkpt><trkpt lat="42.425291746222165" lon="13.852392242625616"><ele>498.0</ele><time>2026-05-03T10:18:54.999Z</time></trkpt><trkpt lat="42.425370173035404" lon="13.852257960063593"><ele>498.0</ele><time>2026-05-03T10:18:55.999Z</time></trkpt><trkpt lat="42.42544700621302" lon="13.852130584166053"><ele>498.0</ele><time>2026-05-03T10:18:56.999Z</time></trkpt><trkpt lat="42.425523057347895" lon="13.852001463950376"><ele>498.0</ele><time>2026-05-03T10:18:57.999Z</time></trkpt><trkpt lat="42.425592590178674" lon="13.851853360345729"><ele>495.25</ele><time>2026-05-03T10:18:58.999Z</time></trkpt><trkpt lat="42.42564333714556" lon="13.851687944084242"><ele>492.5</ele><time>2026-05-03T10:18:59.999Z</time></trkpt><trkpt lat="42.42567686490656" lon="13.851517431716362"><ele>489.75</ele><time>2026-05-03T10:19:00.999Z</time></trkpt><trkpt lat="42.42569721311254" lon="13.851346918854052"><ele>487.0</ele><time>2026-05-03T10:19:01.999Z</time></trkpt><trkpt lat="42.42571592251425" lon="13.851177957247026"><ele>487.0</ele><time>2026-05-03T10:19:02.999Z</time></trkpt><trkpt lat="42.42572663735298" lon="13.851002911072554"><ele>487.0</ele><time>2026-05-03T10:19:03.999Z</time></trkpt><trkpt lat="42.425712239066534" lon="13.850817008925103"><ele>487.0</ele><time>2026-05-03T10:19:04.999Z</time></trkpt><trkpt lat="42.42569619882122" lon="13.850622260337888"><ele>487.0</ele><time>2026-05-03T10:19:05.999Z</time></trkpt><trkpt lat="42.42567559855417" lon="13.850432848260343"><ele>486.25</ele><time>2026-05-03T10:19:06.999Z</time></trkpt><trkpt lat="42.42565677720585" lon="13.850244051156869"><ele>485.5</ele><time>2026-05-03T10:19:07.999Z</time></trkpt><trkpt lat="42.42562662430857" lon="13.85006236090586"><ele>484.75</ele><time>2026-05-03T10:19:08.999Z</time></trkpt><trkpt lat="42.42561141369157" lon="13.849876412748587"><ele>484.0</ele><time>2026-05-03T10:19:09.999Z</time></trkpt><trkpt lat="42.425591788082706" lon="13.849693165161895"><ele>482.25</ele><time>2026-05-03T10:19:10.999Z</time></trkpt><trkpt lat="42.42558196013398" lon="13.849509882222643"><ele>480.5</ele><time>2026-05-03T10:19:11.999Z</time></trkpt><trkpt lat="42.425593879008446" lon="13.849325308536013"><ele>478.75</ele><time>2026-05-03T10:19:12.999Z</time></trkpt><trkpt lat="42.42562345312781" lon="13.849145275001542"><ele>477.0</ele><time>2026-05-03T10:19:13.999Z</time></trkpt><trkpt lat="42.4256754167141" lon="13.848978678483036"><ele>476.0</ele><time>2026-05-03T10:19:14.999Z</time></trkpt><trkpt lat="42.425709793771766" lon="13.848802285447382"><ele>475.0</ele><time>2026-05-03T10:19:15.999Z</time></trkpt><trkpt lat="42.42573367348256" lon="13.848625219997015"><ele>474.0</ele><time>2026-05-03T10:19:16.999Z</time></trkpt><trkpt lat="42.42574657094656" lon="13.848446237815262"><ele>473.0</ele><time>2026-05-03T10:19:17.999Z</time></trkpt><trkpt lat="42.425751545248126" lon="13.848266894633275"><ele>471.25</ele><time>2026-05-03T10:19:18.999Z</time></trkpt><trkpt lat="42.42574073771473" lon="13.848086962539382"><ele>469.5</ele><time>2026-05-03T10:19:19.999Z</time></trkpt><trkpt lat="42.42574494042725" lon="13.847910949497589"><ele>467.75</ele><time>2026-05-03T10:19:20.999Z</time></trkpt><trkpt lat="42.425739479386344" lon="13.847735099302612"><ele>466.0</ele><time>2026-05-03T10:19:21.999Z</time></trkpt><trkpt lat="42.425723170968716" lon="13.847558128862614"><ele>464.5</ele><time>2026-05-03T10:19:22.999Z</time></trkpt><trkpt lat="42.425692114576705" lon="13.847387751564469"><ele>463.0</ele><time>2026-05-03T10:19:23.999Z</time></trkpt><trkpt lat="42.425675169098454" lon="13.847211799815689"><ele>461.5</ele><time>2026-05-03T10:19:24.999Z</time></trkpt><trkpt lat="42.425649437612066" lon="13.847041061691119"><ele>460.0</ele><time>2026-05-03T10:19:25.999Z</time></trkpt><trkpt lat="42.42563070137095" lon="13.846884567609536"><ele>459.6</ele><time>2026-05-03T10:19:26.999Z</time></trkpt><trkpt lat="42.42562639543644" lon="13.846735762218172"><ele>459.2</ele><time>2026-05-03T10:19:27.999Z</time></trkpt><trkpt lat="42.42564714865037" lon="13.846591611239521"><ele>458.79999999999995</ele><time>2026-05-03T10:19:28.999Z</time></trkpt><trkpt lat="42.42567915797931" lon="13.846446537194428"><ele>458.4</ele><time>2026-05-03T10:19:29.999Z</time></trkpt><trkpt lat="42.42576466987945" lon="13.846348211856128"><ele>458.0</ele><time>2026-05-03T10:19:30.999Z</time></trkpt><trkpt lat="42.425848220101436" lon="13.846256475212398"><ele>458.0</ele><time>2026-05-03T10:19:31.999Z</time></trkpt><trkpt lat="42.42596626023571" lon="13.846237858678169"><ele>458.0</ele><time>2026-05-03T10:19:32.999Z</time></trkpt><trkpt lat="42.42609120111677" lon="13.846214759802983"><ele>458.0</ele><time>2026-05-03T10:19:33.999Z</time></trkpt><trkpt lat="42.42622549624083" lon="13.846230176319185"><ele>458.0</ele><time>2026-05-03T10:19:34.999Z</time></trkpt><trkpt lat="42.42636710672341" lon="13.846264990825075"><ele>455.3333333333333</ele><time>2026-05-03T10:19:35.999Z</time></trkpt><trkpt lat="42.426506610999226" lon="13.846340968052708"><ele>452.66666666666663</ele><time>2026-05-03T10:19:36.999Z</time></trkpt><trkpt lat="42.4266632486737" lon="13.846396905425422"><ele>450.0</ele><time>2026-05-03T10:19:37.999Z</time></trkpt><trkpt lat="42.426828940489386" lon="13.846482065884045"><ele>450.0</ele><time>2026-05-03T10:19:38.999Z</time></trkpt><trkpt lat="42.42699765849393" lon="13.846562518619992"><ele>450.0</ele><time>2026-05-03T10:19:39.999Z</time></trkpt><trkpt lat="42.427156755656604" lon="13.846628401958943"><ele>450.0</ele><time>2026-05-03T10:19:40.999Z</time></trkpt><trkpt lat="42.42730157209377" lon="13.846700416401506"><ele>447.5</ele><time>2026-05-03T10:19:41.999Z</time></trkpt><trkpt lat="42.42742363878113" lon="13.846817202676732"><ele>445.0</ele><time>2026-05-03T10:19:42.999Z</time></trkpt><trkpt lat="42.4275424572007" lon="13.846931489972908"><ele>442.5</ele><time>2026-05-03T10:19:43.999Z</time></trkpt><trkpt lat="42.42763490945902" lon="13.847069752546167"><ele>440.0</ele><time>2026-05-03T10:19:44.999Z</time></trkpt><trkpt lat="42.427711035910825" lon="13.84719650065762"><ele>440.0</ele><time>2026-05-03T10:19:45.999Z</time></trkpt><trkpt lat="42.4277759975297" lon="13.847301836555637"><ele>440.0</ele><time>2026-05-03T10:19:46.999Z</time></trkpt><trkpt lat="42.427842925018986" lon="13.847378152700276"><ele>440.0</ele><time>2026-05-03T10:19:47.999Z</time></trkpt><trkpt lat="42.427928207533945" lon="13.8474231936431"><ele>440.0</ele><time>2026-05-03T10:19:48.999Z</time></trkpt><trkpt lat="42.42801929025797" lon="13.84741329428275"><ele>440.0</ele><time>2026-05-03T10:19:49.999Z</time></trkpt><trkpt lat="42.428095027926155" lon="13.847344917776683"><ele>441.6</ele><time>2026-05-03T10:19:51Z</time></trkpt><trkpt lat="42.42813006814673" lon="13.847224192631128"><ele>443.2</ele><time>2026-05-03T10:19:52Z</time></trkpt><trkpt lat="42.428153025400384" lon="13.847098306693294"><ele>444.79999999999995</ele><time>2026-05-03T10:19:53Z</time></trkpt><trkpt lat="42.428083209858144" lon="13.84696133191357"><ele>446.4</ele><time>2026-05-03T10:19:54Z</time></trkpt><trkpt lat="42.42800784208445" lon="13.846861833050818"><ele>448.0</ele><time>2026-05-03T10:19:55Z</time></trkpt><trkpt lat="42.42794691340607" lon="13.846737322492485"><ele>448.0</ele><time>2026-05-03T10:19:56Z</time></trkpt><trkpt lat="42.427903710622175" lon="13.846586092037903"><ele>448.0</ele><time>2026-05-03T10:19:57Z</time></trkpt><trkpt lat="42.42786369012919" lon="13.846428548005147"><ele>448.0</ele><time>2026-05-03T10:19:58Z</time></trkpt><trkpt lat="42.42788237010488" lon="13.846282016299151"><ele>448.0</ele><time>2026-05-03T10:19:59Z</time></trkpt><trkpt lat="42.42789953060984" lon="13.846144604379084"><ele>448.0</ele><time>2026-05-03T10:20:00Z</time></trkpt><trkpt lat="42.42796346049065" lon="13.84601851411054"><ele>448.0</ele><time>2026-05-03T10:20:01Z</time></trkpt><trkpt lat="42.42807372436272" lon="13.84592952653886"><ele>448.0</ele><time>2026-05-03T10:20:02Z</time></trkpt><trkpt lat="42.42818523302728" lon="13.845793023104074"><ele>448.0</ele><time>2026-05-03T10:20:03Z</time></trkpt><trkpt lat="42.42830008688152" lon="13.845677097451393"><ele>444.75</ele><time>2026-05-03T10:20:04Z</time></trkpt><trkpt lat="42.428399857522464" lon="13.845573219141453"><ele>441.5</ele><time>2026-05-03T10:20:05Z</time></trkpt><trkpt lat="42.4284950387043" lon="13.845476903343528"><ele>438.25</ele><time>2026-05-03T10:20:06Z</time></trkpt><trkpt lat="42.428613247300866" lon="13.845431082396228"><ele>435.0</ele><time>2026-05-03T10:20:07Z</time></trkpt><trkpt lat="42.42872512716081" lon="13.845396697461863"><ele>437.25</ele><time>2026-05-03T10:20:08Z</time></trkpt><trkpt lat="42.428842756281" lon="13.845438914579853"><ele>439.5</ele><time>2026-05-03T10:20:09Z</time></trkpt><trkpt lat="42.42893846400496" lon="13.845515212703766"><ele>441.75</ele><time>2026-05-03T10:20:10Z</time></trkpt><trkpt lat="42.429016431079894" lon="13.845621337553006"><ele>444.0</ele><time>2026-05-03T10:20:11Z</time></trkpt><trkpt lat="42.42909625307218" lon="13.845748412017567"><ele>444.0</ele><time>2026-05-03T10:20:12Z</time></trkpt><trkpt lat="42.42918627437529" lon="13.845888095328965"><ele>444.0</ele><time>2026-05-03T10:20:13Z</time></trkpt><trkpt lat="42.42929269387545" lon="13.846037269279595"><ele>444.0</ele><time>2026-05-03T10:20:14Z</time></trkpt><trkpt lat="42.429400183603356" lon="13.846183808250485"><ele>444.0</ele><time>2026-05-03T10:20:15Z</time></trkpt><trkpt lat="42.429492284449296" lon="13.846320882192929"><ele>444.0</ele><time>2026-05-03T10:20:16Z</time></trkpt><trkpt lat="42.429588374978714" lon="13.846462028054393"><ele>444.0</ele><time>2026-05-03T10:20:17Z</time></trkpt><trkpt lat="42.42968794188666" lon="13.846610412026868"><ele>444.0</ele><time>2026-05-03T10:20:18Z</time></trkpt><trkpt lat="42.42977926090844" lon="13.846745334973997"><ele>444.0</ele><time>2026-05-03T10:20:19Z</time></trkpt><trkpt lat="42.429869101054976" lon="13.846862951375003"><ele>444.0</ele><time>2026-05-03T10:20:20Z</time></trkpt><trkpt lat="42.429965930397486" lon="13.846968710866415"><ele>444.0</ele><time>2026-05-03T10:20:21Z</time></trkpt><trkpt lat="42.43007251227676" lon="13.847049614984005"><ele>444.0</ele><time>2026-05-03T10:20:22Z</time></trkpt><trkpt lat="42.430183878710665" lon="13.847103108791982"><ele>444.0</ele><time>2026-05-03T10:20:23Z</time></trkpt><trkpt lat="42.43030869102653" lon="13.847108671271618"><ele>444.0</ele><time>2026-05-03T10:20:24Z</time></trkpt><trkpt lat="42.43043964092702" lon="13.847076286016755"><ele>444.0</ele><time>2026-05-03T10:20:25Z</time></trkpt><trkpt lat="42.430571828893754" lon="13.847021394448703"><ele>444.0</ele><time>2026-05-03T10:20:26Z</time></trkpt><trkpt lat="42.43069288577203" lon="13.846976873226106"><ele>444.0</ele><time>2026-05-03T10:20:27Z</time></trkpt><trkpt lat="42.43081583904218" lon="13.84695921996915"><ele>443.75</ele><time>2026-05-03T10:20:28Z</time></trkpt><trkpt lat="42.43094365651838" lon="13.846972810262749"><ele>443.5</ele><time>2026-05-03T10:20:29Z</time></trkpt><trkpt lat="42.43106507621151" lon="13.847034673044593"><ele>443.25</ele><time>2026-05-03T10:20:30Z</time></trkpt><trkpt lat="42.431171675408024" lon="13.847141228419254"><ele>443.0</ele><time>2026-05-03T10:20:31Z</time></trkpt><trkpt lat="42.43125430550464" lon="13.84728747122439"><ele>442.75</ele><time>2026-05-03T10:20:32Z</time></trkpt><trkpt lat="42.431312721016624" lon="13.847467898526803"><ele>442.5</ele><time>2026-05-03T10:20:33Z</time></trkpt><trkpt lat="42.431363574645886" lon="13.847656378223954"><ele>442.25</ele><time>2026-05-03T10:20:34Z</time></trkpt><trkpt lat="42.4314267497752" lon="13.847835836647315"><ele>442.0</ele><time>2026-05-03T10:20:35Z</time></trkpt><trkpt lat="42.43149843273293" lon="13.847986650077345"><ele>442.0</ele><time>2026-05-03T10:20:36Z</time></trkpt><trkpt lat="42.4315744598391" lon="13.848111264803688"><ele>442.0</ele><time>2026-05-03T10:20:37Z</time></trkpt><trkpt lat="42.43166390473198" lon="13.848205746992406"><ele>442.0</ele><time>2026-05-03T10:20:37.999Z</time></trkpt><trkpt lat="42.431767475083" lon="13.848262901332916"><ele>442.0</ele><time>2026-05-03T10:20:38.999Z</time></trkpt><trkpt lat="42.43188195739524" lon="13.848284063447645"><ele>442.0</ele><time>2026-05-03T10:20:39.999Z</time></trkpt><trkpt lat="42.43199757309962" lon="13.848265103661884"><ele>442.0</ele><time>2026-05-03T10:20:40.999Z</time></trkpt><trkpt lat="42.43211328846409" lon="13.848203443491464"><ele>442.0</ele><time>2026-05-03T10:20:41.999Z</time></trkpt><trkpt lat="42.43223313678905" lon="13.848103628460057"><ele>442.0</ele><time>2026-05-03T10:20:42.999Z</time></trkpt><trkpt lat="42.43233527087085" lon="13.847992050247234"><ele>442.5</ele><time>2026-05-03T10:20:43.999Z</time></trkpt><trkpt lat="42.432423805214704" lon="13.847884733873963"><ele>443.0</ele><time>2026-05-03T10:20:44.999Z</time></trkpt><trkpt lat="42.43249678443248" lon="13.84777339999508"><ele>443.5</ele><time>2026-05-03T10:20:45.999Z</time></trkpt><trkpt lat="42.432547118096004" lon="13.847633591075907"><ele>444.0</ele><time>2026-05-03T10:20:46.999Z</time></trkpt><trkpt lat="42.432565439795674" lon="13.847459656267926"><ele>444.0</ele><time>2026-05-03T10:20:47.999Z</time></trkpt><trkpt lat="42.43260625565904" lon="13.847312869292036"><ele>444.0</ele><time>2026-05-03T10:20:48.999Z</time></trkpt><trkpt lat="42.43267243756586" lon="13.847176380255169"><ele>444.0</ele><time>2026-05-03T10:20:49.999Z</time></trkpt><trkpt lat="42.43274625698409" lon="13.847049592456486"><ele>444.0</ele><time>2026-05-03T10:20:50.999Z</time></trkpt><trkpt lat="42.43283890979232" lon="13.846957586262391"><ele>444.0</ele><time>2026-05-03T10:20:51.999Z</time></trkpt><trkpt lat="42.43294841113282" lon="13.846891141187875"><ele>444.0</ele><time>2026-05-03T10:20:52.999Z</time></trkpt><trkpt lat="42.43306463101228" lon="13.846825106941246"><ele>444.0</ele><time>2026-05-03T10:20:53.999Z</time></trkpt><trkpt lat="42.433190579095495" lon="13.84678048074557"><ele>444.0</ele><time>2026-05-03T10:20:54.999Z</time></trkpt><trkpt lat="42.433326300597074" lon="13.846752735638937"><ele>443.0</ele><time>2026-05-03T10:20:55.999Z</time></trkpt><trkpt lat="42.43345651610215" lon="13.846730048894932"><ele>442.0</ele><time>2026-05-03T10:20:56.999Z</time></trkpt><trkpt lat="42.43358156150535" lon="13.846723874021212"><ele>441.0</ele><time>2026-05-03T10:20:57.999Z</time></trkpt><trkpt lat="42.43369457855908" lon="13.846680548022066"><ele>440.0</ele><time>2026-05-03T10:20:58.999Z</time></trkpt><trkpt lat="42.43379179337716" lon="13.846595969993064"><ele>435.75</ele><time>2026-05-03T10:20:59.999Z</time></trkpt><trkpt lat="42.43387174730023" lon="13.84646724015413"><ele>431.5</ele><time>2026-05-03T10:21:00.999Z</time></trkpt><trkpt lat="42.43393821778908" lon="13.846310489577576"><ele>427.25</ele><time>2026-05-03T10:21:01.999Z</time></trkpt><trkpt lat="42.43401544670864" lon="13.846170641466616"><ele>423.0</ele><time>2026-05-03T10:21:02.999Z</time></trkpt><trkpt lat="42.43407998562768" lon="13.846028316290969"><ele>424.4</ele><time>2026-05-03T10:21:03.999Z</time></trkpt><trkpt lat="42.434141670849364" lon="13.845883208617954"><ele>425.79999999999995</ele><time>2026-05-03T10:21:04.999Z</time></trkpt><trkpt lat="42.43419765070171" lon="13.845741472018307"><ele>427.2</ele><time>2026-05-03T10:21:05.999Z</time></trkpt><trkpt lat="42.434229062397925" lon="13.845602114706054"><ele>428.6</ele><time>2026-05-03T10:21:06.999Z</time></trkpt><trkpt lat="42.43427254747989" lon="13.845494429943741"><ele>430.0</ele><time>2026-05-03T10:21:07.999Z</time></trkpt><trkpt lat="42.43433623853403" lon="13.84540586956006"><ele>430.0</ele><time>2026-05-03T10:21:08.999Z</time></trkpt><trkpt lat="42.434421850299906" lon="13.845346913465939"><ele>430.0</ele><time>2026-05-03T10:21:09.999Z</time></trkpt><trkpt lat="42.434527485347054" lon="13.845331353462429"><ele>430.0</ele><time>2026-05-03T10:21:10.999Z</time></trkpt><trkpt lat="42.434639996518776" lon="13.845348453782059"><ele>430.0</ele><time>2026-05-03T10:21:11.999Z</time></trkpt><trkpt lat="42.434740564430044" lon="13.845335037500258"><ele>430.0</ele><time>2026-05-03T10:21:12.999Z</time></trkpt><trkpt lat="42.43482651126182" lon="13.845267043365315"><ele>427.5</ele><time>2026-05-03T10:21:13.999Z</time></trkpt><trkpt lat="42.43489386971549" lon="13.845155715557352"><ele>425.0</ele><time>2026-05-03T10:21:14.999Z</time></trkpt><trkpt lat="42.43492930012324" lon="13.845006888986914"><ele>422.5</ele><time>2026-05-03T10:21:15.999Z</time></trkpt><trkpt lat="42.43494842341316" lon="13.844843596602214"><ele>420.0</ele><time>2026-05-03T10:21:16.999Z</time></trkpt><trkpt lat="42.434963727140826" lon="13.84467459429779"><ele>420.0</ele><time>2026-05-03T10:21:17.999Z</time></trkpt><trkpt lat="42.43500523217691" lon="13.844526711442363"><ele>420.0</ele><time>2026-05-03T10:21:18.999Z</time></trkpt><trkpt lat="42.43504503446309" lon="13.844385071447478"><ele>420.0</ele><time>2026-05-03T10:21:19.999Z</time></trkpt><trkpt lat="42.435097592017904" lon="13.844258184657004"><ele>420.0</ele><time>2026-05-03T10:21:20.999Z</time></trkpt><trkpt lat="42.43515737666003" lon="13.844139113827383"><ele>420.0</ele><time>2026-05-03T10:21:21.999Z</time></trkpt><trkpt lat="42.43526652190838" lon="13.844071711124794"><ele>422.0</ele><time>2026-05-03T10:21:22.999Z</time></trkpt><trkpt lat="42.435394081509436" lon="13.844031683298386"><ele>424.0</ele><time>2026-05-03T10:21:23.999Z</time></trkpt><trkpt lat="42.435520702294504" lon="13.844014000989555"><ele>426.0</ele><time>2026-05-03T10:21:24.999Z</time></trkpt><trkpt lat="42.435646964449724" lon="13.844017059264889"><ele>428.0</ele><time>2026-05-03T10:21:25.999Z</time></trkpt><trkpt lat="42.43578059820615" lon="13.844045269553147"><ele>423.75</ele><time>2026-05-03T10:21:26.999Z</time></trkpt><trkpt lat="42.43591718500298" lon="13.844070703045194"><ele>419.5</ele><time>2026-05-03T10:21:27.999Z</time></trkpt><trkpt lat="42.4360574774984" lon="13.844089502831864"><ele>415.25</ele><time>2026-05-03T10:21:28.999Z</time></trkpt><trkpt lat="42.43619247436588" lon="13.844116484815459"><ele>411.0</ele><time>2026-05-03T10:21:29.999Z</time></trkpt><trkpt lat="42.43631757318189" lon="13.844171947948203"><ele>408.5</ele><time>2026-05-03T10:21:30.999Z</time></trkpt><trkpt lat="42.43642858007725" lon="13.844265173502926"><ele>406.0</ele><time>2026-05-03T10:21:31.999Z</time></trkpt><trkpt lat="42.43653160213331" lon="13.844376599419718"><ele>403.5</ele><time>2026-05-03T10:21:32.999Z</time></trkpt><trkpt lat="42.43662255960193" lon="13.844499532490374"><ele>401.0</ele><time>2026-05-03T10:21:33.999Z</time></trkpt><trkpt lat="42.43670698350359" lon="13.84462839864409"><ele>400.75</ele><time>2026-05-03T10:21:34.999Z</time></trkpt><trkpt lat="42.43678479849596" lon="13.84476100365037"><ele>400.5</ele><time>2026-05-03T10:21:35.999Z</time></trkpt><trkpt lat="42.436834994390196" lon="13.844909854458539"><ele>400.25</ele><time>2026-05-03T10:21:36.999Z</time></trkpt><trkpt lat="42.436859791656424" lon="13.845069751396986"><ele>400.0</ele><time>2026-05-03T10:21:37.999Z</time></trkpt><trkpt lat="42.436871664932966" lon="13.84522712540736"><ele>400.6</ele><time>2026-05-03T10:21:38.999Z</time></trkpt><trkpt lat="42.43689178489557" lon="13.845377604915443"><ele>401.2</ele><time>2026-05-03T10:21:39.999Z</time></trkpt><trkpt lat="42.4369368426869" lon="13.845514741851003"><ele>401.79999999999995</ele><time>2026-05-03T10:21:40.999Z</time></trkpt><trkpt lat="42.437001870726164" lon="13.84563578275448"><ele>402.4</ele><time>2026-05-03T10:21:41.999Z</time></trkpt><trkpt lat="42.43707082272835" lon="13.845753896818035"><ele>403.0</ele><time>2026-05-03T10:21:42.999Z</time></trkpt><trkpt lat="42.437147863819725" lon="13.845873044278246"><ele>398.75</ele><time>2026-05-03T10:21:43.999Z</time></trkpt><trkpt lat="42.437240642329435" lon="13.845981313986094"><ele>394.5</ele><time>2026-05-03T10:21:44.999Z</time></trkpt><trkpt lat="42.437351366427485" lon="13.8460782416959"><ele>390.25</ele><time>2026-05-03T10:21:45.999Z</time></trkpt><trkpt lat="42.43747339976884" lon="13.846169166075462"><ele>386.0</ele><time>2026-05-03T10:21:46.998Z</time></trkpt><trkpt lat="42.43759236227881" lon="13.846254423677905"><ele>386.0</ele><time>2026-05-03T10:21:47.998Z</time></trkpt><trkpt lat="42.43770553699271" lon="13.846350104872267"><ele>386.0</ele><time>2026-05-03T10:21:48.998Z</time></trkpt><trkpt lat="42.43780191982795" lon="13.846467031949103"><ele>386.0</ele><time>2026-05-03T10:21:49.998Z</time></trkpt><trkpt lat="42.437875100023994" lon="13.846610770336458"><ele>386.0</ele><time>2026-05-03T10:21:50.998Z</time></trkpt><trkpt lat="42.43793585378519" lon="13.84675350397617"><ele>384.0</ele><time>2026-05-03T10:21:51.998Z</time></trkpt><trkpt lat="42.43801631780039" lon="13.84687338633716"><ele>382.0</ele><time>2026-05-03T10:21:52.998Z</time></trkpt><trkpt lat="42.438132038442596" lon="13.846936858099498"><ele>380.0</ele><time>2026-05-03T10:21:53.998Z</time></trkpt><trkpt lat="42.43824910933574" lon="13.846964476663324"><ele>378.0</ele><time>2026-05-03T10:21:54.998Z</time></trkpt><trkpt lat="42.438364989011966" lon="13.84695049300259"><ele>378.0</ele><time>2026-05-03T10:21:56Z</time></trkpt><trkpt lat="42.43847813193172" lon="13.846893604278243"><ele>378.0</ele><time>2026-05-03T10:21:57Z</time></trkpt><trkpt lat="42.43858560172679" lon="13.846805377374743"><ele>378.0</ele><time>2026-05-03T10:21:58Z</time></trkpt><trkpt lat="42.43868852193957" lon="13.846720945713884"><ele>378.0</ele><time>2026-05-03T10:21:59Z</time></trkpt><trkpt lat="42.438804442385425" lon="13.846666839711808"><ele>378.75</ele><time>2026-05-03T10:22:00Z</time></trkpt><trkpt lat="42.438933335154616" lon="13.846645782159513"><ele>379.5</ele><time>2026-05-03T10:22:01Z</time></trkpt><trkpt lat="42.43907641273787" lon="13.84666498794691"><ele>380.25</ele><time>2026-05-03T10:22:02Z</time></trkpt><trkpt lat="42.439230222716766" lon="13.846712080586176"><ele>381.0</ele><time>2026-05-03T10:22:03Z</time></trkpt><trkpt lat="42.43938394895677" lon="13.846779388614717"><ele>378.5</ele><time>2026-05-03T10:22:04Z</time></trkpt><trkpt lat="42.43952727375392" lon="13.846842903098597"><ele>376.0</ele><time>2026-05-03T10:22:05Z</time></trkpt><trkpt lat="42.439667563359194" lon="13.84690547902743"><ele>373.5</ele><time>2026-05-03T10:22:06Z</time></trkpt><trkpt lat="42.43980566225972" lon="13.84697637103766"><ele>371.0</ele><time>2026-05-03T10:22:07Z</time></trkpt><trkpt lat="42.43993551033952" lon="13.847064296402149"><ele>370.25</ele><time>2026-05-03T10:22:08Z</time></trkpt><trkpt lat="42.44005622467192" lon="13.847170654726998"><ele>369.5</ele><time>2026-05-03T10:22:09Z</time></trkpt><trkpt lat="42.440172002029755" lon="13.847274078861648"><ele>368.75</ele><time>2026-05-03T10:22:10Z</time></trkpt><trkpt lat="42.44029720113816" lon="13.847359027652024"><ele>368.0</ele><time>2026-05-03T10:22:11Z</time></trkpt><trkpt lat="42.44042960844286" lon="13.84741787568362"><ele>368.75</ele><time>2026-05-03T10:22:12Z</time></trkpt><trkpt lat="42.440560298630366" lon="13.847461939279729"><ele>369.5</ele><time>2026-05-03T10:22:13Z</time></trkpt><trkpt lat="42.4406872314741" lon="13.84751374283235"><ele>370.25</ele><time>2026-05-03T10:22:14Z</time></trkpt><trkpt lat="42.4408104676101" lon="13.847575989309277"><ele>371.0</ele><time>2026-05-03T10:22:15Z</time></trkpt><trkpt lat="42.440930180431835" lon="13.847653400492016"><ele>368.5</ele><time>2026-05-03T10:22:16Z</time></trkpt><trkpt lat="42.44104374393812" lon="13.84775194022121"><ele>366.0</ele><time>2026-05-03T10:22:17Z</time></trkpt><trkpt lat="42.44115818000968" lon="13.847859894030895"><ele>363.5</ele><time>2026-05-03T10:22:18Z</time></trkpt><trkpt lat="42.44127456230254" lon="13.84797298980205"><ele>361.0</ele><time>2026-05-03T10:22:19Z</time></trkpt><trkpt lat="42.441370680756265" lon="13.848111058734961"><ele>361.0</ele><time>2026-05-03T10:22:20Z</time></trkpt><trkpt lat="42.44147741446036" lon="13.848222660931508"><ele>361.0</ele><time>2026-05-03T10:22:21Z</time></trkpt><trkpt lat="42.441562190711124" lon="13.848349531587477"><ele>361.0</ele><time>2026-05-03T10:22:22Z</time></trkpt><trkpt lat="42.44164529683893" lon="13.848463549536623"><ele>361.0</ele><time>2026-05-03T10:22:23Z</time></trkpt><trkpt lat="42.44172057999952" lon="13.848555592522"><ele>358.0</ele><time>2026-05-03T10:22:24Z</time></trkpt><trkpt lat="42.44180412767829" lon="13.848633947384576"><ele>355.0</ele><time>2026-05-03T10:22:25Z</time></trkpt><trkpt lat="42.44190176863409" lon="13.848669426451837"><ele>352.0</ele><time>2026-05-03T10:22:26Z</time></trkpt><trkpt lat="42.442002577671246" lon="13.848650576885884"><ele>349.0</ele><time>2026-05-03T10:22:27Z</time></trkpt><trkpt lat="42.442099280265715" lon="13.848611697418017"><ele>346.0</ele><time>2026-05-03T10:22:28Z</time></trkpt><trkpt lat="42.44217858416223" lon="13.848497733633314"><ele>345.25</ele><time>2026-05-03T10:22:29Z</time></trkpt><trkpt lat="42.442234527482114" lon="13.848355914103891"><ele>344.5</ele><time>2026-05-03T10:22:30Z</time></trkpt><trkpt lat="42.44228251838232" lon="13.848207504519568"><ele>343.75</ele><time>2026-05-03T10:22:31Z</time></trkpt><trkpt lat="42.44231117235568" lon="13.84804575942183"><ele>343.0</ele><time>2026-05-03T10:22:32Z</time></trkpt><trkpt lat="42.44232982394789" lon="13.847896854700345"><ele>343.0</ele><time>2026-05-03T10:22:33Z</time></trkpt><trkpt lat="42.44236073477219" lon="13.847756861965179"><ele>343.0</ele><time>2026-05-03T10:22:34Z</time></trkpt><trkpt lat="42.442390950982166" lon="13.847624727667055"><ele>343.0</ele><time>2026-05-03T10:22:35Z</time></trkpt><trkpt lat="42.442403657994994" lon="13.847486303572397"><ele>343.0</ele><time>2026-05-03T10:22:35.999Z</time></trkpt><trkpt lat="42.442380320441025" lon="13.847352886806636"><ele>343.0</ele><time>2026-05-03T10:22:36.999Z</time></trkpt><trkpt lat="42.44233173387036" lon="13.847230023024178"><ele>343.5</ele><time>2026-05-03T10:22:37.999Z</time></trkpt><trkpt lat="42.4423205480436" lon="13.847095156512802"><ele>344.0</ele><time>2026-05-03T10:22:38.999Z</time></trkpt><trkpt lat="42.44235422922834" lon="13.846961746864192"><ele>344.5</ele><time>2026-05-03T10:22:39.999Z</time></trkpt><trkpt lat="42.44239354096048" lon="13.846808586313015"><ele>345.0</ele><time>2026-05-03T10:22:40.999Z</time></trkpt><trkpt lat="42.44240335901377" lon="13.846633764564727"><ele>345.0</ele><time>2026-05-03T10:22:41.999Z</time></trkpt><trkpt lat="42.44240737998189" lon="13.84647435451921"><ele>345.0</ele><time>2026-05-03T10:22:42.999Z</time></trkpt><trkpt lat="42.442386012208104" lon="13.846321105106993"><ele>345.0</ele><time>2026-05-03T10:22:43.999Z</time></trkpt><trkpt lat="42.44241166121896" lon="13.84617862510122"><ele>345.0</ele><time>2026-05-03T10:22:44.999Z</time></trkpt><trkpt lat="42.442445889364045" lon="13.846043806770561"><ele>345.0</ele><time>2026-05-03T10:22:45.999Z</time></trkpt><trkpt lat="42.44249346648023" lon="13.845897235299683"><ele>345.75</ele><time>2026-05-03T10:22:46.999Z</time></trkpt><trkpt lat="42.44255297102734" lon="13.84574885317419"><ele>346.5</ele><time>2026-05-03T10:22:47.999Z</time></trkpt><trkpt lat="42.44261584265762" lon="13.845619816994088"><ele>347.25</ele><time>2026-05-03T10:22:48.999Z</time></trkpt><trkpt lat="42.44266956701995" lon="13.8454789111726"><ele>348.0</ele><time>2026-05-03T10:22:49.999Z</time></trkpt><trkpt lat="42.442740914043426" lon="13.845351759984961"><ele>348.0</ele><time>2026-05-03T10:22:50.999Z</time></trkpt><trkpt lat="42.44280719584061" lon="13.8452267382007"><ele>348.0</ele><time>2026-05-03T10:22:51.999Z</time></trkpt><trkpt lat="42.44287646326509" lon="13.845108131826638"><ele>348.0</ele><time>2026-05-03T10:22:52.999Z</time></trkpt><trkpt lat="42.44295427066516" lon="13.845001015491277"><ele>348.0</ele><time>2026-05-03T10:22:53.999Z</time></trkpt><trkpt lat="42.4430367290401" lon="13.844911394182535"><ele>348.0</ele><time>2026-05-03T10:22:54.999Z</time></trkpt><trkpt lat="42.44313894086855" lon="13.844876511388582"><ele>343.0</ele><time>2026-05-03T10:22:55.999Z</time></trkpt><trkpt lat="42.44326171262538" lon="13.844814221445585"><ele>338.0</ele><time>2026-05-03T10:22:56.999Z</time></trkpt><trkpt lat="42.44339911115151" lon="13.844744622004686"><ele>333.0</ele><time>2026-05-03T10:22:57.999Z</time></trkpt><trkpt lat="42.443550509602304" lon="13.844667930841583"><ele>328.0</ele><time>2026-05-03T10:22:58.999Z</time></trkpt><trkpt lat="42.44369877682586" lon="13.844592825885394"><ele>328.25</ele><time>2026-05-03T10:22:59.999Z</time></trkpt><trkpt lat="42.443827334086" lon="13.844511877876943"><ele>328.5</ele><time>2026-05-03T10:23:00.999Z</time></trkpt><trkpt lat="42.44395000271863" lon="13.844450628889168"><ele>328.75</ele><time>2026-05-03T10:23:01.999Z</time></trkpt><trkpt lat="42.44406877307586" lon="13.844387561874719"><ele>329.0</ele><time>2026-05-03T10:23:02.999Z</time></trkpt><trkpt lat="42.44417134763599" lon="13.844300767274705"><ele>329.75</ele><time>2026-05-03T10:23:03.999Z</time></trkpt><trkpt lat="42.444254455058925" lon="13.844186088312881"><ele>330.5</ele><time>2026-05-03T10:23:04.999Z</time></trkpt><trkpt lat="42.44431163868585" lon="13.844044053201552"><ele>331.25</ele><time>2026-05-03T10:23:05.999Z</time></trkpt><trkpt lat="42.444350337066595" lon="13.843884836633393"><ele>332.0</ele><time>2026-05-03T10:23:06.999Z</time></trkpt><trkpt lat="42.444360801563974" lon="13.843721509764313"><ele>332.0</ele><time>2026-05-03T10:23:07.999Z</time></trkpt><trkpt lat="42.4443541835752" lon="13.843545967675498"><ele>332.0</ele><time>2026-05-03T10:23:08.999Z</time></trkpt><trkpt lat="42.444318518673214" lon="13.843367079967706"><ele>332.0</ele><time>2026-05-03T10:23:09.999Z</time></trkpt><trkpt lat="42.4442623355655" lon="13.843162565078408"><ele>332.0</ele><time>2026-05-03T10:23:10.999Z</time></trkpt><trkpt lat="42.444207650939276" lon="13.842931198904473"><ele>332.33333333333337</ele><time>2026-05-03T10:23:11.999Z</time></trkpt><trkpt lat="42.444158682434946" lon="13.842693108538041"><ele>332.6666666666667</ele><time>2026-05-03T10:23:12.999Z</time></trkpt><trkpt lat="42.44411693888949" lon="13.84247855189614"><ele>333.0</ele><time>2026-05-03T10:23:13.999Z</time></trkpt><trkpt lat="42.444071571313074" lon="13.84227278341685"><ele>334.6666666666667</ele><time>2026-05-03T10:23:14.999Z</time></trkpt><trkpt lat="42.44402880682699" lon="13.842064375451024"><ele>336.33333333333337</ele><time>2026-05-03T10:23:15.999Z</time></trkpt><trkpt lat="42.443982768150974" lon="13.841858906758123"><ele>338.0</ele><time>2026-05-03T10:23:16.999Z</time></trkpt><trkpt lat="42.44393569233328" lon="13.841652157106354"><ele>340.33333333333337</ele><time>2026-05-03T10:23:17.999Z</time></trkpt><trkpt lat="42.44389483165921" lon="13.841446382095798"><ele>342.6666666666667</ele><time>2026-05-03T10:23:18.999Z</time></trkpt><trkpt lat="42.44384546511724" lon="13.8412355748608"><ele>345.0</ele><time>2026-05-03T10:23:19.999Z</time></trkpt><trkpt lat="42.44382530013935" lon="13.841012947681657"><ele>342.6666666666667</ele><time>2026-05-03T10:23:20.999Z</time></trkpt><trkpt lat="42.44379838357563" lon="13.840784972094017"><ele>340.33333333333337</ele><time>2026-05-03T10:23:21.999Z</time></trkpt><trkpt lat="42.44376725890261" lon="13.840575446773231"><ele>338.0</ele><time>2026-05-03T10:23:22.999Z</time></trkpt><trkpt lat="42.44376411810502" lon="13.8403709993715"><ele>338.0</ele><time>2026-05-03T10:23:23.999Z</time></trkpt><trkpt lat="42.44372527553888" lon="13.840141800064904"><ele>338.0</ele><time>2026-05-03T10:23:24.999Z</time></trkpt><trkpt lat="42.44369085755201" lon="13.839914467180021"><ele>338.0</ele><time>2026-05-03T10:23:25.999Z</time></trkpt><trkpt lat="42.44365345076829" lon="13.839707638084116"><ele>339.33333333333337</ele><time>2026-05-03T10:23:26.999Z</time></trkpt><trkpt lat="42.44361403794892" lon="13.839525940530761"><ele>340.6666666666667</ele><time>2026-05-03T10:23:27.999Z</time></trkpt><trkpt lat="42.44354911826288" lon="13.839345243242505"><ele>342.0</ele><time>2026-05-03T10:23:28.999Z</time></trkpt><trkpt lat="42.443451559557346" lon="13.839164315349615"><ele>344.6666666666667</ele><time>2026-05-03T10:23:29.999Z</time></trkpt><trkpt lat="42.4433337668531" lon="13.839002646148145"><ele>347.33333333333337</ele><time>2026-05-03T10:23:30.999Z</time></trkpt><trkpt lat="42.44321427939555" lon="13.838840383334679"><ele>350.0</ele><time>2026-05-03T10:23:31.999Z</time></trkpt><trkpt lat="42.44309632232549" lon="13.83866775742631"><ele>350.0</ele><time>2026-05-03T10:23:32.999Z</time></trkpt><trkpt lat="42.442975739463016" lon="13.838498687347748"><ele>350.0</ele><time>2026-05-03T10:23:33.999Z</time></trkpt><trkpt lat="42.442847431206296" lon="13.838341092539205"><ele>350.0</ele><time>2026-05-03T10:23:34.999Z</time></trkpt><trkpt lat="42.442721262647794" lon="13.838198800401662"><ele>349.5</ele><time>2026-05-03T10:23:35.999Z</time></trkpt><trkpt lat="42.442598665628175" lon="13.838081499481131"><ele>349.0</ele><time>2026-05-03T10:23:36.999Z</time></trkpt><trkpt lat="42.44248552167031" lon="13.837976566801482"><ele>348.5</ele><time>2026-05-03T10:23:37.999Z</time></trkpt><trkpt lat="42.44240363693061" lon="13.837838840296776"><ele>348.0</ele><time>2026-05-03T10:23:38.999Z</time></trkpt><trkpt lat="42.442322425241514" lon="13.837694865615475"><ele>348.75</ele><time>2026-05-03T10:23:39.999Z</time></trkpt><trkpt lat="42.44223988519659" lon="13.837541110590292"><ele>349.5</ele><time>2026-05-03T10:23:40.999Z</time></trkpt><trkpt lat="42.44213211796915" lon="13.837421750186786"><ele>350.25</ele><time>2026-05-03T10:23:41.999Z</time></trkpt><trkpt lat="42.44203607880586" lon="13.83730828436476"><ele>351.0</ele><time>2026-05-03T10:23:42.999Z</time></trkpt><trkpt lat="42.441958163555775" lon="13.837193113452729"><ele>351.0</ele><time>2026-05-03T10:23:43.999Z</time></trkpt><trkpt lat="42.44191555359241" lon="13.837060531272932"><ele>351.0</ele><time>2026-05-03T10:23:44.998Z</time></trkpt><trkpt lat="42.44188857543944" lon="13.836916496791725"><ele>351.0</ele><time>2026-05-03T10:23:45.998Z</time></trkpt><trkpt lat="42.441893976669135" lon="13.836776177996677"><ele>351.0</ele><time>2026-05-03T10:23:46.998Z</time></trkpt><trkpt lat="42.44185582997812" lon="13.83666225123862"><ele>351.0</ele><time>2026-05-03T10:23:47.998Z</time></trkpt><trkpt lat="42.44181303944553" lon="13.836548729493325"><ele>353.4</ele><time>2026-05-03T10:23:48.998Z</time></trkpt><trkpt lat="42.4417638594179" lon="13.83641954635321"><ele>355.8</ele><time>2026-05-03T10:23:49.998Z</time></trkpt><trkpt lat="42.441737215188134" lon="13.836280250683656"><ele>358.2</ele><time>2026-05-03T10:23:50.998Z</time></trkpt><trkpt lat="42.441708345543255" lon="13.836148724398274"><ele>360.59999999999997</ele><time>2026-05-03T10:23:51.998Z</time></trkpt><trkpt lat="42.441709053413305" lon="13.836021746440823"><ele>363.0</ele><time>2026-05-03T10:23:52.998Z</time></trkpt><trkpt lat="42.44171510429115" lon="13.835887806957743"><ele>364.2</ele><time>2026-05-03T10:23:53.998Z</time></trkpt><trkpt lat="42.44178080392826" lon="13.835777328107023"><ele>365.4</ele><time>2026-05-03T10:23:54.998Z</time></trkpt><trkpt lat="42.44183670033223" lon="13.835658214455991"><ele>366.59999999999997</ele><time>2026-05-03T10:23:55.998Z</time></trkpt><trkpt lat="42.44188425542128" lon="13.83553131587726"><ele>367.79999999999995</ele><time>2026-05-03T10:23:56.998Z</time></trkpt><trkpt lat="42.44195327959655" lon="13.835447006989014"><ele>369.0</ele><time>2026-05-03T10:23:57.998Z</time></trkpt><trkpt lat="42.44201115074638" lon="13.835356682119206"><ele>369.0</ele><time>2026-05-03T10:23:58.998Z</time></trkpt><trkpt lat="42.44207934875821" lon="13.83526400826506"><ele>369.0</ele><time>2026-05-03T10:23:59.998Z</time></trkpt><trkpt lat="42.44216201036446" lon="13.835175112812287"><ele>369.0</ele><time>2026-05-03T10:24:01Z</time></trkpt><trkpt lat="42.44226142626806" lon="13.835077135098265"><ele>369.0</ele><time>2026-05-03T10:24:02Z</time></trkpt><trkpt lat="42.442381198907476" lon="13.834960544296889"><ele>372.0</ele><time>2026-05-03T10:24:03Z</time></trkpt><trkpt lat="42.4425147100316" lon="13.834841029263282"><ele>375.0</ele><time>2026-05-03T10:24:04Z</time></trkpt><trkpt lat="42.44264174349079" lon="13.834743559157902"><ele>378.0</ele><time>2026-05-03T10:24:05Z</time></trkpt><trkpt lat="42.44277043866381" lon="13.834658180087839"><ele>381.0</ele><time>2026-05-03T10:24:06Z</time></trkpt><trkpt lat="42.44291626172313" lon="13.834604653350365"><ele>384.25</ele><time>2026-05-03T10:24:07Z</time></trkpt><trkpt lat="42.443060747820866" lon="13.834555000984142"><ele>387.5</ele><time>2026-05-03T10:24:08Z</time></trkpt><trkpt lat="42.4432037075267" lon="13.834515005847276"><ele>390.75</ele><time>2026-05-03T10:24:09Z</time></trkpt><trkpt lat="42.44333645061347" lon="13.834469144636454"><ele>394.0</ele><time>2026-05-03T10:24:10Z</time></trkpt><trkpt lat="42.44344826673143" lon="13.834418907612289"><ele>394.0</ele><time>2026-05-03T10:24:11Z</time></trkpt><trkpt lat="42.44353619877374" lon="13.834356518034147"><ele>394.0</ele><time>2026-05-03T10:24:12Z</time></trkpt><trkpt lat="42.44359703814645" lon="13.83427399993759"><ele>394.0</ele><time>2026-05-03T10:24:13Z</time></trkpt><trkpt lat="42.44362891228449" lon="13.834166800314916"><ele>394.0</ele><time>2026-05-03T10:24:14Z</time></trkpt><trkpt lat="42.443645334643946" lon="13.834054577010487"><ele>394.0</ele><time>2026-05-03T10:24:15Z</time></trkpt><trkpt lat="42.443583294536076" lon="13.833931546121125"><ele>391.75</ele><time>2026-05-03T10:24:16Z</time></trkpt><trkpt lat="42.44351698016393" lon="13.833814328082244"><ele>389.5</ele><time>2026-05-03T10:24:17Z</time></trkpt><trkpt lat="42.4434423463241" lon="13.833686891659637"><ele>387.25</ele><time>2026-05-03T10:24:18Z</time></trkpt><trkpt lat="42.4433586490529" lon="13.833571750345767"><ele>385.0</ele><time>2026-05-03T10:24:19Z</time></trkpt><trkpt lat="42.443243837626525" lon="13.833474532403942"><ele>385.0</ele><time>2026-05-03T10:24:20Z</time></trkpt><trkpt lat="42.443140020571526" lon="13.833383583992505"><ele>385.0</ele><time>2026-05-03T10:24:21Z</time></trkpt><trkpt lat="42.44305759009252" lon="13.833302412390221"><ele>385.0</ele><time>2026-05-03T10:24:22Z</time></trkpt><trkpt lat="42.44299556011864" lon="13.833214685123462"><ele>385.0</ele><time>2026-05-03T10:24:23Z</time></trkpt><trkpt lat="42.44293328143473" lon="13.833119881286303"><ele>385.0</ele><time>2026-05-03T10:24:24Z</time></trkpt><trkpt lat="42.4428899558197" lon="13.832996074692112"><ele>385.0</ele><time>2026-05-03T10:24:25Z</time></trkpt><trkpt lat="42.4428631143197" lon="13.832846016051487"><ele>385.0</ele><time>2026-05-03T10:24:26Z</time></trkpt><trkpt lat="42.442826484884534" lon="13.832712727615249"><ele>385.0</ele><time>2026-05-03T10:24:27Z</time></trkpt><trkpt lat="42.44280721245141" lon="13.832591179045247"><ele>385.0</ele><time>2026-05-03T10:24:28Z</time></trkpt><trkpt lat="42.44279731059588" lon="13.832473722702668"><ele>385.0</ele><time>2026-05-03T10:24:29Z</time></trkpt><trkpt lat="42.44282036619173" lon="13.832364588422635"><ele>385.4</ele><time>2026-05-03T10:24:30Z</time></trkpt><trkpt lat="42.4428994588909" lon="13.83231069470465"><ele>385.8</ele><time>2026-05-03T10:24:31Z</time></trkpt><trkpt lat="42.4429749758606" lon="13.832246050117039"><ele>386.20000000000005</ele><time>2026-05-03T10:24:32Z</time></trkpt><trkpt lat="42.44307469853905" lon="13.832203324860949"><ele>386.6</ele><time>2026-05-03T10:24:33Z</time></trkpt><trkpt lat="42.443164951477506" lon="13.832122936898042"><ele>387.0</ele><time>2026-05-03T10:24:34Z</time></trkpt><trkpt lat="42.443250435217486" lon="13.832005836367173"><ele>390.75</ele><time>2026-05-03T10:24:34.999Z</time></trkpt><trkpt lat="42.44332778541103" lon="13.831859338665483"><ele>394.5</ele><time>2026-05-03T10:24:35.999Z</time></trkpt><trkpt lat="42.44340025503322" lon="13.831701345925547"><ele>398.25</ele><time>2026-05-03T10:24:36.999Z</time></trkpt><trkpt lat="42.44346399593376" lon="13.831568241790912"><ele>402.0</ele><time>2026-05-03T10:24:37.999Z</time></trkpt><trkpt lat="42.44351378469338" lon="13.831450156974856"><ele>402.0</ele><time>2026-05-03T10:24:38.999Z</time></trkpt><trkpt lat="42.44354513238077" lon="13.831339014465327"><ele>402.0</ele><time>2026-05-03T10:24:39.999Z</time></trkpt><trkpt lat="42.443548882187095" lon="13.831233174905131"><ele>402.0</ele><time>2026-05-03T10:24:40.999Z</time></trkpt><trkpt lat="42.443514484314036" lon="13.831135775112273"><ele>402.0</ele><time>2026-05-03T10:24:41.999Z</time></trkpt><trkpt lat="42.44343959743136" lon="13.83105869395645"><ele>402.0</ele><time>2026-05-03T10:24:42.999Z</time></trkpt><trkpt lat="42.44334273616769" lon="13.831029554753732"><ele>402.0</ele><time>2026-05-03T10:24:43.999Z</time></trkpt><trkpt lat="42.443242667996515" lon="13.831022162852673"><ele>402.0</ele><time>2026-05-03T10:24:44.999Z</time></trkpt><trkpt lat="42.443147383877054" lon="13.831013273567272"><ele>402.0</ele><time>2026-05-03T10:24:45.999Z</time></trkpt><trkpt lat="42.443063215493076" lon="13.830986032752628"><ele>402.0</ele><time>2026-05-03T10:24:46.999Z</time></trkpt><trkpt lat="42.44298937895761" lon="13.830942527120989"><ele>402.0</ele><time>2026-05-03T10:24:47.999Z</time></trkpt><trkpt lat="42.44294901314407" lon="13.830843549600454"><ele>402.0</ele><time>2026-05-03T10:24:48.999Z</time></trkpt><trkpt lat="42.442943744917564" lon="13.830721071032096"><ele>402.0</ele><time>2026-05-03T10:24:49.999Z</time></trkpt><trkpt lat="42.4429716116408" lon="13.8305950439294"><ele>403.75</ele><time>2026-05-03T10:24:50.999Z</time></trkpt><trkpt lat="42.44304895770136" lon="13.83049031666597"><ele>405.5</ele><time>2026-05-03T10:24:51.999Z</time></trkpt><trkpt lat="42.44312267269935" lon="13.8303623283065"><ele>407.25</ele><time>2026-05-03T10:24:52.999Z</time></trkpt><trkpt lat="42.4432298567719" lon="13.83024515853432"><ele>409.0</ele><time>2026-05-03T10:24:53.999Z</time></trkpt><trkpt lat="42.44334898777755" lon="13.830117512454272"><ele>409.25</ele><time>2026-05-03T10:24:54.999Z</time></trkpt><trkpt lat="42.44346741731521" lon="13.830004555605791"><ele>409.5</ele><time>2026-05-03T10:24:55.999Z</time></trkpt><trkpt lat="42.44356617500175" lon="13.829910778082867"><ele>409.75</ele><time>2026-05-03T10:24:56.999Z</time></trkpt><trkpt lat="42.44368143620102" lon="13.829861980936993"><ele>410.0</ele><time>2026-05-03T10:24:57.999Z</time></trkpt><trkpt lat="42.44378663273705" lon="13.829787014672261"><ele>412.75</ele><time>2026-05-03T10:24:58.999Z</time></trkpt><trkpt lat="42.4439116051421" lon="13.829759144026255"><ele>415.5</ele><time>2026-05-03T10:24:59.999Z</time></trkpt><trkpt lat="42.44404123106071" lon="13.829729871534099"><ele>418.25</ele><time>2026-05-03T10:25:00.999Z</time></trkpt><trkpt lat="42.44417083468214" lon="13.829705024347444"><ele>421.0</ele><time>2026-05-03T10:25:01.999Z</time></trkpt><trkpt lat="42.44429366176036" lon="13.829658754513062"><ele>421.0</ele><time>2026-05-03T10:25:02.999Z</time></trkpt><trkpt lat="42.44439616988602" lon="13.829569129018502"><ele>421.0</ele><time>2026-05-03T10:25:03.999Z</time></trkpt><trkpt lat="42.444487623080924" lon="13.82945215687636"><ele>421.0</ele><time>2026-05-03T10:25:04.999Z</time></trkpt><trkpt lat="42.44456153562526" lon="13.829327763923164"><ele>421.0</ele><time>2026-05-03T10:25:05.999Z</time></trkpt><trkpt lat="42.44461644335458" lon="13.829185128207875"><ele>424.75</ele><time>2026-05-03T10:25:06.999Z</time></trkpt><trkpt lat="42.444657590439164" lon="13.82903563892146"><ele>428.5</ele><time>2026-05-03T10:25:07.999Z</time></trkpt><trkpt lat="42.444683968631836" lon="13.828880454769767"><ele>432.25</ele><time>2026-05-03T10:25:08.999Z</time></trkpt><trkpt lat="42.44471258355617" lon="13.828720790185125"><ele>436.0</ele><time>2026-05-03T10:25:09.999Z</time></trkpt><trkpt lat="42.444753993316375" lon="13.828560242110914"><ele>435.6</ele><time>2026-05-03T10:25:10.999Z</time></trkpt><trkpt lat="42.444790798776474" lon="13.828395705221654"><ele>435.20000000000005</ele><time>2026-05-03T10:25:11.999Z</time></trkpt><trkpt lat="42.44482094743413" lon="13.828238704711696"><ele>434.79999999999995</ele><time>2026-05-03T10:25:12.999Z</time></trkpt><trkpt lat="42.44482289994018" lon="13.828097335556826"><ele>434.4</ele><time>2026-05-03T10:25:13.999Z</time></trkpt><trkpt lat="42.444812520898594" lon="13.827968327000429"><ele>434.0</ele><time>2026-05-03T10:25:14.999Z</time></trkpt><trkpt lat="42.444776347723916" lon="13.827852666590633"><ele>434.0</ele><time>2026-05-03T10:25:15.999Z</time></trkpt><trkpt lat="42.44469904375949" lon="13.827757492906326"><ele>434.0</ele><time>2026-05-03T10:25:16.999Z</time></trkpt><trkpt lat="42.44458973294232" lon="13.827676071721864"><ele>434.0</ele><time>2026-05-03T10:25:17.999Z</time></trkpt><trkpt lat="42.44446841896101" lon="13.827588417929741"><ele>434.0</ele><time>2026-05-03T10:25:18.999Z</time></trkpt><trkpt lat="42.444362369436305" lon="13.827492462045395"><ele>433.6</ele><time>2026-05-03T10:25:19.999Z</time></trkpt><trkpt lat="42.44426506240668" lon="13.82740894518845"><ele>433.2</ele><time>2026-05-03T10:25:20.999Z</time></trkpt><trkpt lat="42.44417566214257" lon="13.827320367054984"><ele>432.80000000000007</ele><time>2026-05-03T10:25:21.999Z</time></trkpt><trkpt lat="42.44408394747372" lon="13.827248590968216"><ele>432.40000000000003</ele><time>2026-05-03T10:25:22.999Z</time></trkpt><trkpt lat="42.44399632234272" lon="13.827191176129546"><ele>432.0</ele><time>2026-05-03T10:25:23.999Z</time></trkpt><trkpt lat="42.443917112392214" lon="13.827152672974282"><ele>432.0</ele><time>2026-05-03T10:25:24.999Z</time></trkpt><trkpt lat="42.44383844608517" lon="13.827124510631354"><ele>432.0</ele><time>2026-05-03T10:25:25.999Z</time></trkpt><trkpt lat="42.44377243585997" lon="13.827083192496271"><ele>432.0</ele><time>2026-05-03T10:25:26.999Z</time></trkpt><trkpt lat="42.443711872189176" lon="13.827056286488311"><ele>432.0</ele><time>2026-05-03T10:25:27.999Z</time></trkpt><trkpt lat="42.44365610458014" lon="13.82701242442011"><ele>432.0</ele><time>2026-05-03T10:25:28.999Z</time></trkpt><trkpt lat="42.443586682670144" lon="13.82694826770022"><ele>432.0</ele><time>2026-05-03T10:25:29.999Z</time></trkpt><trkpt lat="42.44355827036329" lon="13.826851402818034"><ele>432.0</ele><time>2026-05-03T10:25:30.999Z</time></trkpt><trkpt lat="42.44354288375038" lon="13.826765504077027"><ele>432.8</ele><time>2026-05-03T10:25:31.999Z</time></trkpt><trkpt lat="42.443586333946854" lon="13.826689191082142"><ele>433.6</ele><time>2026-05-03T10:25:32.999Z</time></trkpt><trkpt lat="42.44365993699471" lon="13.826653336501098"><ele>434.40000000000003</ele><time>2026-05-03T10:25:33.999Z</time></trkpt><trkpt lat="42.443765995674575" lon="13.826661930804757"><ele>435.20000000000005</ele><time>2026-05-03T10:25:34.999Z</time></trkpt><trkpt lat="42.44388138316592" lon="13.82668347337593"><ele>436.0</ele><time>2026-05-03T10:25:35.999Z</time></trkpt><trkpt lat="42.443977822681695" lon="13.826704538274065"><ele>435.33333333333337</ele><time>2026-05-03T10:25:36.999Z</time></trkpt><trkpt lat="42.44406471130479" lon="13.826773966798772"><ele>434.6666666666667</ele><time>2026-05-03T10:25:37.999Z</time></trkpt><trkpt lat="42.44414057206027" lon="13.826848670041405"><ele>434.0</ele><time>2026-05-03T10:25:38.999Z</time></trkpt><trkpt lat="42.44421712069371" lon="13.826890880885212"><ele>433.33333333333337</ele><time>2026-05-03T10:25:39.999Z</time></trkpt><trkpt lat="42.4442882849479" lon="13.826900755968563"><ele>432.6666666666667</ele><time>2026-05-03T10:25:40.999Z</time></trkpt><trkpt lat="42.4443569573954" lon="13.826867189407471"><ele>432.0</ele><time>2026-05-03T10:25:41.999Z</time></trkpt><trkpt lat="42.444414993975315" lon="13.826740673636063"><ele>435.75</ele><time>2026-05-03T10:25:43.999Z</time></trkpt><trkpt lat="42.44430584849235" lon="13.826610674989226"><ele>439.5</ele><time>2026-05-03T10:25:44.998Z</time></trkpt><trkpt lat="42.444208628404084" lon="13.826539617412147"><ele>443.25</ele><time>2026-05-03T10:25:45.998Z</time></trkpt><trkpt lat="42.44411622858659" lon="13.826428215355845"><ele>447.0</ele><time>2026-05-03T10:25:46.998Z</time></trkpt><trkpt lat="42.444007072670644" lon="13.826313838916683"><ele>447.0</ele><time>2026-05-03T10:25:47.998Z</time></trkpt><trkpt lat="42.44391032015368" lon="13.826191297289075"><ele>447.0</ele><time>2026-05-03T10:25:48.998Z</time></trkpt><trkpt lat="42.4438023361753" lon="13.82611196424655"><ele>447.0</ele><time>2026-05-03T10:25:49.998Z</time></trkpt><trkpt lat="42.443675649306236" lon="13.82606126933458"><ele>447.0</ele><time>2026-05-03T10:25:50.998Z</time></trkpt><trkpt lat="42.44353772560832" lon="13.826016193987757"><ele>449.66666666666663</ele><time>2026-05-03T10:25:51.998Z</time></trkpt><trkpt lat="42.44340943164844" lon="13.82592290829414"><ele>452.3333333333333</ele><time>2026-05-03T10:25:52.998Z</time></trkpt><trkpt lat="42.44327890273703" lon="13.825793102333263"><ele>455.0</ele><time>2026-05-03T10:25:53.998Z</time></trkpt><trkpt lat="42.443155987028305" lon="13.825634047775408"><ele>455.0</ele><time>2026-05-03T10:25:54.998Z</time></trkpt><trkpt lat="42.44302784371697" lon="13.825508630360485"><ele>455.0</ele><time>2026-05-03T10:25:55.998Z</time></trkpt><trkpt lat="42.44291321677602" lon="13.825378959663444"><ele>455.0</ele><time>2026-05-03T10:25:56.998Z</time></trkpt><trkpt lat="42.44276891511258" lon="13.825277461815803"><ele>451.3333333333333</ele><time>2026-05-03T10:25:57.998Z</time></trkpt><trkpt lat="42.44260369056871" lon="13.825205856205816"><ele>447.66666666666663</ele><time>2026-05-03T10:25:58.998Z</time></trkpt><trkpt lat="42.44244158119866" lon="13.82513225297956"><ele>444.0</ele><time>2026-05-03T10:25:59.998Z</time></trkpt><trkpt lat="42.44229426743111" lon="13.825005333867441"><ele>450.0</ele><time>2026-05-03T10:26:00.998Z</time></trkpt><trkpt lat="42.44213765064338" lon="13.824951374655937"><ele>456.0</ele><time>2026-05-03T10:26:01.998Z</time></trkpt><trkpt lat="42.44199624144093" lon="13.8249023604455"><ele>462.0</ele><time>2026-05-03T10:26:02.998Z</time></trkpt><trkpt lat="42.4418814029496" lon="13.824814487207929"><ele>468.0</ele><time>2026-05-03T10:26:03.998Z</time></trkpt><trkpt lat="42.44177700067714" lon="13.82472731005388"><ele>468.0</ele><time>2026-05-03T10:26:04.998Z</time></trkpt><trkpt lat="42.44166179822558" lon="13.824641876298793"><ele>468.0</ele><time>2026-05-03T10:26:05.998Z</time></trkpt><trkpt lat="42.44152703727718" lon="13.824587683148946"><ele>468.0</ele><time>2026-05-03T10:26:07Z</time></trkpt><trkpt lat="42.44139731889556" lon="13.824551245053629"><ele>468.0</ele><time>2026-05-03T10:26:08Z</time></trkpt><trkpt lat="42.44128368359246" lon="13.824511776131265"><ele>472.75</ele><time>2026-05-03T10:26:09Z</time></trkpt><trkpt lat="42.44117963717044" lon="13.824489865034629"><ele>477.5</ele><time>2026-05-03T10:26:10Z</time></trkpt><trkpt lat="42.4410703078841" lon="13.824441623024505"><ele>482.25</ele><time>2026-05-03T10:26:11Z</time></trkpt><trkpt lat="42.44094905017717" lon="13.824370779786248"><ele>487.0</ele><time>2026-05-03T10:26:12Z</time></trkpt><trkpt lat="42.44082171098198" lon="13.82428487727154"><ele>487.0</ele><time>2026-05-03T10:26:13Z</time></trkpt><trkpt lat="42.44069513622551" lon="13.824182742027832"><ele>487.0</ele><time>2026-05-03T10:26:14Z</time></trkpt><trkpt lat="42.44059809803436" lon="13.82405438775792"><ele>487.0</ele><time>2026-05-03T10:26:15Z</time></trkpt><trkpt lat="42.44048265798801" lon="13.823965146858153"><ele>487.0</ele><time>2026-05-03T10:26:16Z</time></trkpt><trkpt lat="42.440371448467225" lon="13.823892169208627"><ele>479.20000000000005</ele><time>2026-05-03T10:26:17Z</time></trkpt><trkpt lat="42.4402518833049" lon="13.823857885162255"><ele>471.40000000000003</ele><time>2026-05-03T10:26:18Z</time></trkpt><trkpt lat="42.44014436341948" lon="13.82383592031345"><ele>463.59999999999997</ele><time>2026-05-03T10:26:19Z</time></trkpt><trkpt lat="42.440048295907054" lon="13.82381576618777"><ele>455.79999999999995</ele><time>2026-05-03T10:26:20Z</time></trkpt><trkpt lat="42.43997935311943" lon="13.82375447793131"><ele>448.0</ele><time>2026-05-03T10:26:21Z</time></trkpt><trkpt lat="42.439923198263635" lon="13.823668208977416"><ele>448.0</ele><time>2026-05-03T10:26:22Z</time></trkpt><trkpt lat="42.43989324686747" lon="13.823568143408503"><ele>447.99999999999994</ele><time>2026-05-03T10:26:23Z</time></trkpt><trkpt lat="42.43992349036526" lon="13.823459004670593"><ele>447.99999999999994</ele><time>2026-05-03T10:26:24Z</time></trkpt><trkpt lat="42.43995416923755" lon="13.823338565040418"><ele>448.0</ele><time>2026-05-03T10:26:25Z</time></trkpt><trkpt lat="42.44003867171379" lon="13.823223777416786"><ele>448.0</ele><time>2026-05-03T10:26:26Z</time></trkpt><trkpt lat="42.4401213613384" lon="13.823138409933309"><ele>452.25</ele><time>2026-05-03T10:26:27Z</time></trkpt><trkpt lat="42.440210616297094" lon="13.823036396989174"><ele>456.5</ele><time>2026-05-03T10:26:28Z</time></trkpt><trkpt lat="42.440294582065626" lon="13.822913621895832"><ele>460.75</ele><time>2026-05-03T10:26:29Z</time></trkpt><trkpt lat="42.440360877661846" lon="13.82278814027982"><ele>465.0</ele><time>2026-05-03T10:26:30Z</time></trkpt><trkpt lat="42.440431167489784" lon="13.822636911368617"><ele>474.75</ele><time>2026-05-03T10:26:31Z</time></trkpt><trkpt lat="42.4405010523028" lon="13.822487730799116"><ele>484.5</ele><time>2026-05-03T10:26:32Z</time></trkpt><trkpt lat="42.440551357793424" lon="13.822349240556733"><ele>494.25</ele><time>2026-05-03T10:26:32.999Z</time></trkpt><trkpt lat="42.44057835546395" lon="13.822202000936153"><ele>504.0</ele><time>2026-05-03T10:26:33.999Z</time></trkpt><trkpt lat="42.44058919289445" lon="13.82204475852933"><ele>504.0</ele><time>2026-05-03T10:26:34.999Z</time></trkpt><trkpt lat="42.44057323591477" lon="13.821880641295694"><ele>504.0</ele><time>2026-05-03T10:26:35.999Z</time></trkpt><trkpt lat="42.440544445348344" lon="13.821735731033291"><ele>504.0</ele><time>2026-05-03T10:26:36.999Z</time></trkpt><trkpt lat="42.44053454210497" lon="13.8215997869839"><ele>504.0</ele><time>2026-05-03T10:26:37.999Z</time></trkpt><trkpt lat="42.44058234141881" lon="13.821472245533098"><ele>504.0</ele><time>2026-05-03T10:26:38.999Z</time></trkpt><trkpt lat="42.440646729925284" lon="13.821337880844727"><ele>501.75</ele><time>2026-05-03T10:26:39.999Z</time></trkpt><trkpt lat="42.44076129770721" lon="13.821270262131172"><ele>499.5</ele><time>2026-05-03T10:26:40.999Z</time></trkpt><trkpt lat="42.44087197001577" lon="13.82117014048852"><ele>497.25</ele><time>2026-05-03T10:26:41.999Z</time></trkpt><trkpt lat="42.440981439199895" lon="13.821082970139864"><ele>495.0</ele><time>2026-05-03T10:26:42.999Z</time></trkpt><trkpt lat="42.44105202675935" lon="13.820977736129347"><ele>492.8</ele><time>2026-05-03T10:26:43.999Z</time></trkpt><trkpt lat="42.44109752385675" lon="13.820850807620301"><ele>490.6</ele><time>2026-05-03T10:26:44.999Z</time></trkpt><trkpt lat="42.441105742863165" lon="13.82070888841012"><ele>488.4</ele><time>2026-05-03T10:26:45.999Z</time></trkpt><trkpt lat="42.44109037852952" lon="13.820563452452621"><ele>486.2</ele><time>2026-05-03T10:26:46.999Z</time></trkpt><trkpt lat="42.44110516899763" lon="13.820425192448894"><ele>484.0</ele><time>2026-05-03T10:26:47.999Z</time></trkpt><trkpt lat="42.44113284989771" lon="13.820276004418307"><ele>482.5</ele><time>2026-05-03T10:26:48.999Z</time></trkpt><trkpt lat="42.44121113636568" lon="13.820127196616655"><ele>481.0</ele><time>2026-05-03T10:26:49.999Z</time></trkpt><trkpt lat="42.44129618830174" lon="13.819971665329492"><ele>479.5</ele><time>2026-05-03T10:26:50.999Z</time></trkpt><trkpt lat="42.441379189545536" lon="13.819813630863758"><ele>478.0</ele><time>2026-05-03T10:26:51.999Z</time></trkpt><trkpt lat="42.4414666483457" lon="13.819662210997372"><ele>482.75</ele><time>2026-05-03T10:26:52.999Z</time></trkpt><trkpt lat="42.44156812936642" lon="13.819532844387465"><ele>487.5</ele><time>2026-05-03T10:26:53.999Z</time></trkpt><trkpt lat="42.441659560905364" lon="13.819414176878665"><ele>492.25</ele><time>2026-05-03T10:26:54.999Z</time></trkpt><trkpt lat="42.441729880305665" lon="13.819285576644235"><ele>497.0</ele><time>2026-05-03T10:26:55.999Z</time></trkpt><trkpt lat="42.441765726024734" lon="13.819137701532357"><ele>497.0</ele><time>2026-05-03T10:26:56.999Z</time></trkpt><trkpt lat="42.441774165205025" lon="13.818975937260936"><ele>497.0</ele><time>2026-05-03T10:26:57.999Z</time></trkpt><trkpt lat="42.44177662416641" lon="13.818792598254856"><ele>497.0</ele><time>2026-05-03T10:26:58.999Z</time></trkpt><trkpt lat="42.44177185325189" lon="13.818591199877492"><ele>497.0</ele><time>2026-05-03T10:26:59.999Z</time></trkpt><trkpt lat="42.44177866992485" lon="13.818398047364024"><ele>495.5</ele><time>2026-05-03T10:27:00.999Z</time></trkpt><trkpt lat="42.44180971397316" lon="13.8182355984911"><ele>494.0</ele><time>2026-05-03T10:27:01.999Z</time></trkpt><trkpt lat="42.44187423800973" lon="13.818100080283646"><ele>492.5</ele><time>2026-05-03T10:27:02.999Z</time></trkpt><trkpt lat="42.44193694341278" lon="13.817976169690827"><ele>491.0</ele><time>2026-05-03T10:27:03.999Z</time></trkpt><trkpt lat="42.44197409855427" lon="13.817847987458649"><ele>491.0</ele><time>2026-05-03T10:27:04.999Z</time></trkpt><trkpt lat="42.44200574498576" lon="13.817685115144206"><ele>491.0</ele><time>2026-05-03T10:27:05.999Z</time></trkpt><trkpt lat="42.44202831704808" lon="13.817552808285805"><ele>491.0</ele><time>2026-05-03T10:27:06.999Z</time></trkpt><trkpt lat="42.442088841523876" lon="13.81743808982219"><ele>491.0</ele><time>2026-05-03T10:27:07.999Z</time></trkpt><trkpt lat="42.442176398334524" lon="13.817343358203784"><ele>491.0</ele><time>2026-05-03T10:27:08.999Z</time></trkpt><trkpt lat="42.44227552851959" lon="13.817243155152571"><ele>493.5</ele><time>2026-05-03T10:27:09.999Z</time></trkpt><trkpt lat="42.442391648525245" lon="13.817136117573456"><ele>496.0</ele><time>2026-05-03T10:27:10.999Z</time></trkpt><trkpt lat="42.44250439888638" lon="13.817012604619933"><ele>498.5</ele><time>2026-05-03T10:27:11.999Z</time></trkpt><trkpt lat="42.44258595165903" lon="13.816877042825617"><ele>501.0</ele><time>2026-05-03T10:27:12.999Z</time></trkpt><trkpt lat="42.44264155216821" lon="13.816744956225705"><ele>501.0</ele><time>2026-05-03T10:27:13.999Z</time></trkpt><trkpt lat="42.442693601414106" lon="13.816639351858448"><ele>501.0</ele><time>2026-05-03T10:27:14.999Z</time></trkpt><trkpt lat="42.442792758448824" lon="13.816607451458644"><ele>501.0</ele><time>2026-05-03T10:27:16.999Z</time></trkpt><trkpt lat="42.44281381032262" lon="13.816772790415632"><ele>501.0</ele><time>2026-05-03T10:27:18.999Z</time></trkpt><trkpt lat="42.442746645789065" lon="13.81689019124326"><ele>501.0</ele><time>2026-05-03T10:27:19.999Z</time></trkpt><trkpt lat="42.442661856043685" lon="13.816994916661825"><ele>503.25</ele><time>2026-05-03T10:27:20.999Z</time></trkpt><trkpt lat="42.44258765245592" lon="13.817087684711344"><ele>505.5</ele><time>2026-05-03T10:27:21.999Z</time></trkpt><trkpt lat="42.44250984634498" lon="13.817204185411992"><ele>507.75</ele><time>2026-05-03T10:27:22.999Z</time></trkpt><trkpt lat="42.44242318550643" lon="13.817322233913472"><ele>510.0</ele><time>2026-05-03T10:27:23.999Z</time></trkpt><trkpt lat="42.44233210948938" lon="13.817438423190383"><ele>510.0</ele><time>2026-05-03T10:27:24.999Z</time></trkpt><trkpt lat="42.44224304843214" lon="13.81756167215339"><ele>510.0</ele><time>2026-05-03T10:27:25.999Z</time></trkpt><trkpt lat="42.44217095426991" lon="13.817683600293604"><ele>510.0</ele><time>2026-05-03T10:27:26.999Z</time></trkpt><trkpt lat="42.44212758350377" lon="13.8178076291643"><ele>510.0</ele><time>2026-05-03T10:27:27.999Z</time></trkpt><trkpt lat="42.44212173222277" lon="13.817956941468825"><ele>513.4</ele><time>2026-05-03T10:27:28.999Z</time></trkpt><trkpt lat="42.44213387770497" lon="13.818136292726452"><ele>516.8</ele><time>2026-05-03T10:27:29.999Z</time></trkpt><trkpt lat="42.44212638525451" lon="13.818291649980504"><ele>520.2</ele><time>2026-05-03T10:27:30.999Z</time></trkpt><trkpt lat="42.44212302475607" lon="13.818433479597944"><ele>523.6</ele><time>2026-05-03T10:27:31.999Z</time></trkpt><trkpt lat="42.44213821495021" lon="13.818559438498438"><ele>527.0</ele><time>2026-05-03T10:27:32.999Z</time></trkpt><trkpt lat="42.4421736118702" lon="13.818667529692359"><ele>528.1666666666666</ele><time>2026-05-03T10:27:33.999Z</time></trkpt><trkpt lat="42.442198696289445" lon="13.818773052200072"><ele>529.3333333333333</ele><time>2026-05-03T10:27:34.999Z</time></trkpt><trkpt lat="42.44221630472919" lon="13.818872690768"><ele>530.5</ele><time>2026-05-03T10:27:35.999Z</time></trkpt><trkpt lat="42.44220193797285" lon="13.8189734442696"><ele>531.6666666666666</ele><time>2026-05-03T10:27:36.999Z</time></trkpt><trkpt lat="42.44219913392883" lon="13.81907641407652"><ele>532.8333333333334</ele><time>2026-05-03T10:27:37.999Z</time></trkpt><trkpt lat="42.44220182499079" lon="13.81918003498343"><ele>534.0</ele><time>2026-05-03T10:27:38.999Z</time></trkpt><trkpt lat="42.4421719205662" lon="13.819279558992855"><ele>534.1666666666666</ele><time>2026-05-03T10:27:39.999Z</time></trkpt><trkpt lat="42.442154141624606" lon="13.819385989208635"><ele>534.3333333333334</ele><time>2026-05-03T10:27:40.999Z</time></trkpt><trkpt lat="42.44213470734352" lon="13.819493452940863"><ele>534.5</ele><time>2026-05-03T10:27:41.999Z</time></trkpt><trkpt lat="42.44212282256763" lon="13.819594391886689"><ele>534.6666666666667</ele><time>2026-05-03T10:27:42.998Z</time></trkpt><trkpt lat="42.44211295451576" lon="13.819716401700658"><ele>534.8333333333334</ele><time>2026-05-03T10:27:43.998Z</time></trkpt><trkpt lat="42.44211951774045" lon="13.819838136132514"><ele>535.0</ele><time>2026-05-03T10:27:44.998Z</time></trkpt><trkpt lat="42.44212426378663" lon="13.819962712537402"><ele>535.0</ele><time>2026-05-03T10:27:45.998Z</time></trkpt><trkpt lat="42.44212009614009" lon="13.820072949957035"><ele>535.0</ele><time>2026-05-03T10:27:46.998Z</time></trkpt><trkpt lat="42.442116081970596" lon="13.820162212076042"><ele>535.0</ele><time>2026-05-03T10:27:47.998Z</time></trkpt><trkpt lat="42.44210249417765" lon="13.820308837786172"><ele>535.0</ele><time>2026-05-03T10:27:49.998Z</time></trkpt><trkpt lat="42.442079000030816" lon="13.820408346103426"><ele>535.0</ele><time>2026-05-03T10:27:52.998Z</time></trkpt><trkpt lat="42.44210323178043" lon="13.820263889661385"><ele>535.0</ele><time>2026-05-03T10:27:58.998Z</time></trkpt><trkpt lat="42.44213300667276" lon="13.82014329380003"><ele>535.0</ele><time>2026-05-03T10:27:59.998Z</time></trkpt><trkpt lat="42.442137843709645" lon="13.82003665940491"><ele>535.0</ele><time>2026-05-03T10:28:00.998Z</time></trkpt><trkpt lat="42.442131124349515" lon="13.81990939847632"><ele>535.0</ele><time>2026-05-03T10:28:01.998Z</time></trkpt><trkpt lat="42.44214058285643" lon="13.81975346853303"><ele>535.0</ele><time>2026-05-03T10:28:02.998Z</time></trkpt><trkpt lat="42.442158982178896" lon="13.819618806697942"><ele>535.0</ele><time>2026-05-03T10:28:03.998Z</time></trkpt><trkpt lat="42.44217009832251" lon="13.819471408740084"><ele>534.75</ele><time>2026-05-03T10:28:04.998Z</time></trkpt><trkpt lat="42.44219090359197" lon="13.81929506557697"><ele>534.5</ele><time>2026-05-03T10:28:05.998Z</time></trkpt><trkpt lat="42.44221922924536" lon="13.819088721802649"><ele>534.25</ele><time>2026-05-03T10:28:06.998Z</time></trkpt><trkpt lat="42.44222907218343" lon="13.818905814205706"><ele>534.0</ele><time>2026-05-03T10:28:07.998Z</time></trkpt><trkpt lat="42.44221539459112" lon="13.818730112541546"><ele>534.0</ele><time>2026-05-03T10:28:08.998Z</time></trkpt><trkpt lat="42.44218451314216" lon="13.818565174973111"><ele>534.0</ele><time>2026-05-03T10:28:09.998Z</time></trkpt><trkpt lat="42.44214491420255" lon="13.818400478144827"><ele>534.0</ele><time>2026-05-03T10:28:10.998Z</time></trkpt><trkpt lat="42.44213749861534" lon="13.818234712004752"><ele>534.0</ele><time>2026-05-03T10:28:11.998Z</time></trkpt><trkpt lat="42.442154583024184" lon="13.818073554398936"><ele>532.25</ele><time>2026-05-03T10:28:12.999Z</time></trkpt><trkpt lat="42.44216656085707" lon="13.817915847088443"><ele>530.5</ele><time>2026-05-03T10:28:13.999Z</time></trkpt><trkpt lat="42.442039815221904" lon="13.817734001636591"><ele>528.75</ele><time>2026-05-03T10:28:14.999Z</time></trkpt><trkpt lat="42.442077660860186" lon="13.817571318239521"><ele>527.0</ele><time>2026-05-03T10:28:15.999Z</time></trkpt><trkpt lat="42.44220158981966" lon="13.8173987170873"><ele>522.75</ele><time>2026-05-03T10:28:16.999Z</time></trkpt><trkpt lat="42.44230680015978" lon="13.817286451359234"><ele>518.5</ele><time>2026-05-03T10:28:17.999Z</time></trkpt><trkpt lat="42.4424077632543" lon="13.81719862790036"><ele>514.25</ele><time>2026-05-03T10:28:18.999Z</time></trkpt><trkpt lat="42.44249296399987" lon="13.817097572524206"><ele>510.0</ele><time>2026-05-03T10:28:19.999Z</time></trkpt><trkpt lat="42.44256044887916" lon="13.816992415642172"><ele>510.0</ele><time>2026-05-03T10:28:20.999Z</time></trkpt><trkpt lat="42.442622625162436" lon="13.816874527703227"><ele>510.0</ele><time>2026-05-03T10:28:21.999Z</time></trkpt><trkpt lat="42.44269247423279" lon="13.816750151393833"><ele>510.0</ele><time>2026-05-03T10:28:22.999Z</time></trkpt><trkpt lat="42.44277621230465" lon="13.816647504451032"><ele>510.0</ele><time>2026-05-03T10:28:23.999Z</time></trkpt><trkpt lat="42.442928223490746" lon="13.816718413335218"><ele>511.3333333333333</ele><time>2026-05-03T10:28:24.999Z</time></trkpt><trkpt lat="42.443016332524316" lon="13.81670385644612"><ele>512.6666666666666</ele><time>2026-05-03T10:28:25.999Z</time></trkpt><trkpt lat="42.44309390136822" lon="13.816685278440811"><ele>514.0</ele><time>2026-05-03T10:28:26.999Z</time></trkpt><trkpt lat="42.44314649967506" lon="13.816620027520557"><ele>515.3333333333333</ele><time>2026-05-03T10:28:27.999Z</time></trkpt><trkpt lat="42.4431869372672" lon="13.816526126888375"><ele>516.6666666666666</ele><time>2026-05-03T10:28:28.999Z</time></trkpt><trkpt lat="42.44327275838208" lon="13.816460026597976"><ele>518.0</ele><time>2026-05-03T10:28:30.999Z</time></trkpt><trkpt lat="42.44333850578361" lon="13.816481841469876"><ele>518.0</ele><time>2026-05-03T10:28:31.999Z</time></trkpt><trkpt lat="42.44344314886608" lon="13.816454047051408"><ele>518.0</ele><time>2026-05-03T10:28:33.999Z</time></trkpt><trkpt lat="42.44350900822073" lon="13.816442127708468"><ele>518.0</ele><time>2026-05-03T10:28:35.999Z</time></trkpt><trkpt lat="42.443572748480086" lon="13.816430706410252"><ele>518.0</ele><time>2026-05-03T10:28:37.999Z</time></trkpt><trkpt lat="42.44365360066673" lon="13.816390533132912"><ele>518.0</ele><time>2026-05-03T10:29:50.998Z</time></trkpt><trkpt lat="42.44372198737924" lon="13.816360543439437"><ele>518.0</ele><time>2026-05-03T10:29:51.998Z</time></trkpt><trkpt lat="42.443768113253505" lon="13.816292216606042"><ele>518.3333333333333</ele><time>2026-05-03T10:29:52.998Z</time></trkpt><trkpt lat="42.44379915575982" lon="13.816212734273424"><ele>518.6666666666666</ele><time>2026-05-03T10:29:53.998Z</time></trkpt><trkpt lat="42.44383740283094" lon="13.816134630742642"><ele>519.0</ele><time>2026-05-03T10:29:54.998Z</time></trkpt><trkpt lat="42.443952907576026" lon="13.816027830822318"><ele>519.3333333333334</ele><time>2026-05-03T10:29:56.998Z</time></trkpt><trkpt lat="42.44401613153915" lon="13.81595933995979"><ele>519.6666666666667</ele><time>2026-05-03T10:29:57.998Z</time></trkpt><trkpt lat="42.44410383217448" lon="13.815929530184404"><ele>520.0</ele><time>2026-05-03T10:29:58.998Z</time></trkpt><trkpt lat="42.44418270000841" lon="13.815892210660355"><ele>520.0</ele><time>2026-05-03T10:29:59.998Z</time></trkpt><trkpt lat="42.44425241892187" lon="13.815845751771375"><ele>520.0</ele><time>2026-05-03T10:30:00.998Z</time></trkpt><trkpt lat="42.444315433624816" lon="13.815828938968098"><ele>520.0</ele><time>2026-05-03T10:30:01.998Z</time></trkpt><trkpt lat="42.444407622137476" lon="13.815752388883176"><ele>520.0</ele><time>2026-05-03T10:30:03.998Z</time></trkpt><trkpt lat="42.44443593621404" lon="13.815592289698285"><ele>520.0</ele><time>2026-05-03T10:30:05.998Z</time></trkpt><trkpt lat="42.444440959804105" lon="13.815425901309181"><ele>520.0</ele><time>2026-05-03T10:30:07.998Z</time></trkpt><trkpt lat="42.4444346384577" lon="13.815253693069874"><ele>520.0</ele><time>2026-05-03T10:30:09.998Z</time></trkpt><trkpt lat="42.44443502207207" lon="13.815157829688703"><ele>520.0</ele><time>2026-05-03T10:30:10.998Z</time></trkpt><trkpt lat="42.444482184207025" lon="13.81507452482379"><ele>520.0</ele><time>2026-05-03T10:30:11.998Z</time></trkpt><trkpt lat="42.44451132566508" lon="13.814982708290287"><ele>520.0</ele><time>2026-05-03T10:30:12.998Z</time></trkpt><trkpt lat="42.44456287551849" lon="13.814893045176012"><ele>520.0</ele><time>2026-05-03T10:30:13.998Z</time></trkpt><trkpt lat="42.44461603643151" lon="13.814820102157787"><ele>520.8571428571429</ele><time>2026-05-03T10:30:14.998Z</time></trkpt><trkpt lat="42.444663136733716" lon="13.814732791350089"><ele>521.7142857142858</ele><time>2026-05-03T10:30:15.998Z</time></trkpt><trkpt lat="42.44472343729011" lon="13.814657658168665"><ele>522.5714285714286</ele><time>2026-05-03T10:30:16.998Z</time></trkpt><trkpt lat="42.44477220766635" lon="13.814579992638228"><ele>523.4285714285714</ele><time>2026-05-03T10:30:17.998Z</time></trkpt><trkpt lat="42.44480934775402" lon="13.814502642742893"><ele>524.2857142857142</ele><time>2026-05-03T10:30:18.999Z</time></trkpt><trkpt lat="42.44483997395399" lon="13.814421919686152"><ele>525.1428571428571</ele><time>2026-05-03T10:30:19.999Z</time></trkpt><trkpt lat="42.44486175362624" lon="13.8143349210213"><ele>526.0</ele><time>2026-05-03T10:30:20.999Z</time></trkpt><trkpt lat="42.44489254314523" lon="13.814257689045924"><ele>526.1666666666667</ele><time>2026-05-03T10:30:21.999Z</time></trkpt><trkpt lat="42.44489777084399" lon="13.814164970478352"><ele>526.3333333333334</ele><time>2026-05-03T10:30:22.999Z</time></trkpt><trkpt lat="42.44488802729358" lon="13.814076331613077"><ele>526.5</ele><time>2026-05-03T10:30:23.999Z</time></trkpt><trkpt lat="42.44484605593648" lon="13.813987600997647"><ele>526.6666666666666</ele><time>2026-05-03T10:30:24.999Z</time></trkpt><trkpt lat="42.444778706962595" lon="13.81392559831824"><ele>526.8333333333333</ele><time>2026-05-03T10:30:25.999Z</time></trkpt><trkpt lat="42.44472398898576" lon="13.813867099094752"><ele>527.0</ele><time>2026-05-03T10:30:26.999Z</time></trkpt><trkpt lat="42.444643021032824" lon="13.813771749026266"><ele>527.0</ele><time>2026-05-03T10:30:28.999Z</time></trkpt><trkpt lat="42.44463249953222" lon="13.8136417214467"><ele>527.0</ele><time>2026-05-03T10:30:30.999Z</time></trkpt><trkpt lat="42.44466848597722" lon="13.81347688767991"><ele>527.0</ele><time>2026-05-03T10:30:32.999Z</time></trkpt><trkpt lat="42.444698146848815" lon="13.813368562553197"><ele>527.0</ele><time>2026-05-03T10:30:33.999Z</time></trkpt><trkpt lat="42.44473257173984" lon="13.813251237252127"><ele>527.0</ele><time>2026-05-03T10:30:34.999Z</time></trkpt><trkpt lat="42.44474351252729" lon="13.813141488282874"><ele>528.8571428571429</ele><time>2026-05-03T10:30:35.999Z</time></trkpt><trkpt lat="42.44475591436701" lon="13.813039700711128"><ele>530.7142857142858</ele><time>2026-05-03T10:30:36.999Z</time></trkpt><trkpt lat="42.44476487557384" lon="13.812936966158174"><ele>532.5714285714286</ele><time>2026-05-03T10:30:37.999Z</time></trkpt><trkpt lat="42.4447726010935" lon="13.812840787034656"><ele>534.4285714285714</ele><time>2026-05-03T10:30:38.999Z</time></trkpt><trkpt lat="42.44478984539493" lon="13.812750855687996"><ele>536.2857142857142</ele><time>2026-05-03T10:30:39.999Z</time></trkpt><trkpt lat="42.44482202789924" lon="13.812669544591415"><ele>538.1428571428571</ele><time>2026-05-03T10:30:40.999Z</time></trkpt><trkpt lat="42.44485181023035" lon="13.812586810118628"><ele>540.0</ele><time>2026-05-03T10:30:41.999Z</time></trkpt><trkpt lat="42.4448873528185" lon="13.812509579859602"><ele>540.8571428571429</ele><time>2026-05-03T10:30:42.999Z</time></trkpt><trkpt lat="42.44490352694548" lon="13.812419776586262"><ele>541.7142857142857</ele><time>2026-05-03T10:30:43.999Z</time></trkpt><trkpt lat="42.44490123036936" lon="13.812320677301994"><ele>542.5714285714286</ele><time>2026-05-03T10:30:44.999Z</time></trkpt><trkpt lat="42.44490783219685" lon="13.8122195529442"><ele>543.4285714285714</ele><time>2026-05-03T10:30:45.999Z</time></trkpt><trkpt lat="42.44489704946845" lon="13.812127048508453"><ele>544.2857142857142</ele><time>2026-05-03T10:30:46.999Z</time></trkpt><trkpt lat="42.444886679053404" lon="13.81204065825769"><ele>545.1428571428571</ele><time>2026-05-03T10:30:47.999Z</time></trkpt><trkpt lat="42.444875882453815" lon="13.811956335591688"><ele>546.0</ele><time>2026-05-03T10:30:48.999Z</time></trkpt><trkpt lat="42.44486268713466" lon="13.811842712308419"><ele>546.0</ele><time>2026-05-03T10:30:50.999Z</time></trkpt></trkseg></trk></gpx>